Wetterdaten: Donnerstag, 23.05.2013
Datum Zeit Temp. Aussen +5cm Feuchte Auss Luftdruck Regen Sonnenschein Regendauer UV Solar Windben
23.05.2013 00:00 8,1 C 6,8 C 88 % 1013,4 hPa 0,0 l/m 0 min 0 min 0,0 UV-I 0 W/m 0,0 km/h (0 Bft)
23.05.2013 00:02 8,1 C 6,8 C 88 % 1013,2 hPa 0,0 l/m 0 min 0 min 0,0 UV-I 0 W/m 2,6 km/h (1 Bft)
23.05.2013 00:06 8,1 C 6,8 C 88 % 1013,2 hPa 0,0 l/m 0 min 0 min 0,0 UV-I 0 W/m 5,1 km/h (1 Bft)
23.05.2013 00:08 8,1 C 6,8 C 88 % 1013,3 hPa 0,0 l/m 0 min 0 min 0,0 UV-I 0 W/m 0,0 km/h (0 Bft)
23.05.2013 00:10 8,1 C 6,8 C 88 % 1013,2 hPa 0,0 l/m 0 min 0 min 0,0 UV-I 0 W/m 0,0 km/h (0 Bft)
23.05.2013 00:12 8,1 C 6,8 C 88 % 1013,2 hPa 0,0 l/m 0 min 0 min 0,0 UV-I 0 W/m 0,0 km/h (0 Bft)
23.05.2013 00:14 8,1 C 6,8 C 88 % 1013,2 hPa 0,0 l/m 0 min 0 min 0,0 UV-I 0 W/m 0,0 km/h (0 Bft)
23.05.2013 00:16 8,1 C 6,8 C 89 % 1013,2 hPa 0,0 l/m 0 min 0 min 0,0 UV-I 0 W/m 0,0 km/h (0 Bft)
23.05.2013 00:18 8,0 C 6,8 C 89 % 1013,2 hPa 0,0 l/m 0 min 0 min 0,0 UV-I 0 W/m 0,0 km/h (0 Bft)
23.05.2013 00:20 8,0 C 6,8 C 89 % 1013,3 hPa 0,0 l/m 0 min 0 min 0,0 UV-I 0 W/m 0,0 km/h (0 Bft)
23.05.2013 00:22 8,0 C 6,8 C 92 % 1013,3 hPa 0,0 l/m 0 min 0 min 0,0 UV-I 0 W/m 0,0 km/h (0 Bft)
23.05.2013 00:24 8,0 C 6,8 C 93 % 1013,3 hPa 0,0 l/m 0 min 0 min 0,0 UV-I 0 W/m 0,0 km/h (0 Bft)
23.05.2013 00:26 8,0 C 6,8 C 89 % 1013,2 hPa 0,0 l/m 0 min 0 min 0,0 UV-I 0 W/m 0,0 km/h (0 Bft)
23.05.2013 00:28 7,9 C 6,8 C 89 % 1013,1 hPa 0,0 l/m 0 min 0 min 0,0 UV-I 0 W/m 2,6 km/h (1 Bft)
23.05.2013 00:30 7,9 C 6,8 C 89 % 1013,1 hPa 0,0 l/m 0 min 0 min 0,0 UV-I 0 W/m 0,0 km/h (0 Bft)
23.05.2013 00:32 7,9 C 6,8 C 89 % 1013,0 hPa 0,0 l/m 0 min 0 min 0,0 UV-I 0 W/m 0,0 km/h (0 Bft)
23.05.2013 00:34 7,9 C 6,8 C 89 % 1013,0 hPa 0,0 l/m 0 min 0 min 0,0 UV-I 0 W/m 7,7 km/h (2 Bft)
23.05.2013 00:36 7,9 C 6,8 C 89 % 1013,0 hPa 0,0 l/m 0 min 0 min 0,0 UV-I 0 W/m 0,0 km/h (0 Bft)
23.05.2013 00:38 7,9 C 6,8 C 89 % 1013,0 hPa 0,0 l/m 0 min 0 min 0,0 UV-I 0 W/m 0,0 km/h (0 Bft)
23.05.2013 00:40 7,9 C 6,8 C 89 % 1013,0 hPa 0,0 l/m 0 min 0 min 0,0 UV-I 0 W/m 0,0 km/h (0 Bft)
23.05.2013 00:42 7,9 C 6,8 C 89 % 1013,1 hPa 0,0 l/m 0 min 0 min 0,0 UV-I 0 W/m 0,0 km/h (0 Bft)
23.05.2013 00:44 7,9 C 6,8 C 89 % 1013,0 hPa 0,0 l/m 0 min 0 min 0,0 UV-I 0 W/m 0,0 km/h (0 Bft)
23.05.2013 00:46 7,9 C 6,8 C 89 % 1012,9 hPa 0,0 l/m 0 min 0 min 0,0 UV-I 0 W/m 0,0 km/h (0 Bft)
23.05.2013 00:48 7,9 C 6,8 C 89 % 1012,9 hPa 0,0 l/m 0 min 0 min 0,0 UV-I 0 W/m 5,1 km/h (1 Bft)
23.05.2013 00:50 7,9 C 6,8 C 89 % 1012,9 hPa 0,0 l/m 0 min 0 min 0,0 UV-I 0 W/m 0,0 km/h (0 Bft)
23.05.2013 00:52 7,9 C 6,8 C 89 % 1012,9 hPa 0,0 l/m 0 min 0 min 0,0 UV-I 0 W/m 0,0 km/h (0 Bft)
23.05.2013 00:54 7,8 C 6,8 C 89 % 1012,9 hPa 0,0 l/m 0 min 0 min 0,0 UV-I 0 W/m 0,0 km/h (0 Bft)
23.05.2013 00:56 7,8 C 6,8 C 89 % 1012,9 hPa 0,0 l/m 0 min 0 min 0,0 UV-I 0 W/m 0,0 km/h (0 Bft)
23.05.2013 00:58 7,8 C 6,8 C 90 % 1012,8 hPa 0,0 l/m 0 min 0 min 0,0 UV-I 0 W/m 0,0 km/h (0 Bft)
23.05.2013 01:00 7,8 C 6,8 C 90 % 1012,8 hPa 0,0 l/m 0 min 0 min 0,0 UV-I 0 W/m 0,0 km/h (0 Bft)
23.05.2013 01:02 7,8 C 6,8 C 90 % 1012,8 hPa 0,0 l/m 0 min 0 min 0,0 UV-I 0 W/m 0,0 km/h (0 Bft)
23.05.2013 01:04 7,8 C 6,8 C 90 % 1012,8 hPa 0,0 l/m 0 min 0 min 0,0 UV-I 0 W/m 0,0 km/h (0 Bft)
23.05.2013 01:06 7,8 C 6,8 C 90 % 1012,8 hPa 0,0 l/m 0 min 0 min 0,0 UV-I 0 W/m 0,0 km/h (0 Bft)
23.05.2013 01:08 7,8 C 6,8 C 90 % 1012,7 hPa 0,0 l/m 0 min 0 min 0,0 UV-I 0 W/m 0,0 km/h (0 Bft)
23.05.2013 01:10 7,8 C 6,8 C 90 % 1012,6 hPa 0,0 l/m 0 min 0 min 0,0 UV-I 0 W/m 0,0 km/h (0 Bft)
23.05.2013 01:12 7,8 C 6,8 C 90 % 1012,6 hPa 0,0 l/m 0 min 0 min 0,0 UV-I 0 W/m 0,0 km/h (0 Bft)
23.05.2013 01:14 7,8 C 6,8 C 90 % 1012,6 hPa 0,0 l/m 0 min 0 min 0,0 UV-I 0 W/m 0,0 km/h (0 Bft)
23.05.2013 01:16 7,8 C 6,8 C 90 % 1012,6 hPa 0,0 l/m 0 min 0 min 0,0 UV-I 0 W/m 0,0 km/h (0 Bft)
23.05.2013 01:18 7,8 C 6,8 C 90 % 1012,5 hPa 0,0 l/m 0 min 0 min 0,0 UV-I 0 W/m 0,0 km/h (0 Bft)
23.05.2013 01:20 7,8 C 6,8 C 90 % 1012,5 hPa 0,0 l/m 0 min 0 min 0,0 UV-I 0 W/m 0,0 km/h (0 Bft)
23.05.2013 01:22 7,8 C 6,8 C 90 % 1012,5 hPa 0,0 l/m 0 min 0 min 0,0 UV-I 0 W/m 0,0 km/h (0 Bft)
23.05.2013 01:24 7,8 C 6,8 C 90 % 1012,4 hPa 0,0 l/m 0 min 0 min 0,0 UV-I 0 W/m 0,0 km/h (0 Bft)
23.05.2013 01:26 7,8 C 6,8 C 90 % 1012,4 hPa 0,0 l/m 0 min 0 min 0,0 UV-I 0 W/m 0,0 km/h (0 Bft)
23.05.2013 01:28 7,7 C 6,8 C 90 % 1012,4 hPa 0,0 l/m 0 min 0 min 0,0 UV-I 0 W/m 0,0 km/h (0 Bft)
23.05.2013 01:30 7,8 C 6,8 C 90 % 1012,3 hPa 0,0 l/m 0 min 0 min 0,0 UV-I 0 W/m 0,0 km/h (0 Bft)
23.05.2013 01:32 7,7 C 6,8 C 90 % 1012,3 hPa 0,0 l/m 0 min 0 min 0,0 UV-I 0 W/m 0,0 km/h (0 Bft)
23.05.2013 01:34 7,7 C 6,8 C 91 % 1012,3 hPa 0,0 l/m 0 min 0 min 0,0 UV-I 0 W/m 0,0 km/h (0 Bft)
23.05.2013 01:36 7,7 C 6,8 C 91 % 1012,2 hPa 0,0 l/m 0 min 0 min 0,0 UV-I 0 W/m 5,1 km/h (1 Bft)
23.05.2013 01:38 7,7 C 6,8 C 91 % 1012,2 hPa 0,0 l/m 0 min 0 min 0,0 UV-I 0 W/m 0,0 km/h (0 Bft)
23.05.2013 01:40 7,7 C 6,8 C 91 % 1012,2 hPa 0,0 l/m 0 min 0 min 0,0 UV-I 0 W/m 5,1 km/h (1 Bft)
23.05.2013 01:42 7,7 C 6,8 C 91 % 1012,2 hPa 0,0 l/m 0 min 0 min 0,0 UV-I 0 W/m 0,0 km/h (0 Bft)
23.05.2013 01:44 7,7 C 6,8 C 91 % 1012,2 hPa 0,0 l/m 0 min 0 min 0,0 UV-I 0 W/m 0,0 km/h (0 Bft)
23.05.2013 01:46 7,7 C 6,8 C 91 % 1012,2 hPa 0,0 l/m 0 min 0 min 0,0 UV-I 0 W/m 0,0 km/h (0 Bft)
23.05.2013 01:48 7,7 C 6,8 C 91 % 1012,2 hPa 0,0 l/m 0 min 0 min 0,0 UV-I 0 W/m 0,0 km/h (0 Bft)
23.05.2013 01:50 7,7 C 6,8 C 91 % 1012,1 hPa 0,0 l/m 0 min 0 min 0,0 UV-I 0 W/m 5,1 km/h (1 Bft)
23.05.2013 01:52 7,7 C 6,8 C 91 % 1012,1 hPa 0,0 l/m 0 min 0 min 0,0 UV-I 0 W/m 0,0 km/h (0 Bft)
23.05.2013 01:54 7,7 C 6,8 C 91 % 1012,1 hPa 0,0 l/m 0 min 0 min 0,0 UV-I 0 W/m 0,0 km/h (0 Bft)
23.05.2013 01:56 7,7 C 6,8 C 91 % 1012,0 hPa 0,0 l/m 0 min 0 min 0,0 UV-I 0 W/m 0,0 km/h (0 Bft)
23.05.2013 01:58 7,7 C 6,8 C 91 % 1012,0 hPa 0,0 l/m 0 min 0 min 0,0 UV-I 0 W/m 0,0 km/h (0 Bft)
23.05.2013 02:00 7,7 C 6,8 C 91 % 1011,9 hPa 0,0 l/m 0 min 0 min 0,0 UV-I 0 W/m 0,0 km/h (0 Bft)
23.05.2013 02:02 7,7 C 6,8 C 91 % 1012,0 hPa 0,0 l/m 0 min 0 min 0,0 UV-I 0 W/m 0,0 km/h (0 Bft)
23.05.2013 02:04 7,7 C 6,8 C 91 % 1011,9 hPa 0,0 l/m 0 min 0 min 0,0 UV-I 0 W/m 0,0 km/h (0 Bft)
23.05.2013 02:06 7,7 C 6,8 C 91 % 1011,9 hPa 0,0 l/m 0 min 0 min 0,0 UV-I 0 W/m 0,0 km/h (0 Bft)
23.05.2013 02:08 7,7 C 6,8 C 91 % 1011,8 hPa 0,0 l/m 0 min 0 min 0,0 UV-I 0 W/m 0,0 km/h (0 Bft)
23.05.2013 02:10 7,7 C 6,8 C 91 % 1011,8 hPa 0,0 l/m 0 min 0 min 0,0 UV-I 0 W/m 0,0 km/h (0 Bft)
23.05.2013 02:12 7,7 C 6,8 C 92 % 1011,8 hPa 0,0 l/m 0 min 0 min 0,0 UV-I 0 W/m 0,0 km/h (0 Bft)
23.05.2013 02:14 7,7 C 6,8 C 92 % 1011,8 hPa 0,0 l/m 0 min 0 min 0,0 UV-I 0 W/m 0,0 km/h (0 Bft)
23.05.2013 02:16 7,7 C 6,8 C 92 % 1011,7 hPa 0,0 l/m 0 min 0 min 0,0 UV-I 0 W/m 0,0 km/h (0 Bft)
23.05.2013 02:18 7,7 C 6,8 C 92 % 1011,7 hPa 0,0 l/m 0 min 0 min 0,0 UV-I 0 W/m 0,0 km/h (0 Bft)
23.05.2013 02:20 7,7 C 6,8 C 92 % 1011,7 hPa 0,0 l/m 0 min 0 min 0,0 UV-I 0 W/m 0,0 km/h (0 Bft)
23.05.2013 02:22 7,7 C 6,8 C 92 % 1011,7 hPa 0,0 l/m 0 min 0 min 0,0 UV-I 0 W/m 0,0 km/h (0 Bft)
23.05.2013 02:24 7,7 C 6,8 C 92 % 1011,7 hPa 0,0 l/m 0 min 0 min 0,0 UV-I 0 W/m 0,0 km/h (0 Bft)
23.05.2013 02:26 7,7 C 6,8 C 92 % 1011,6 hPa 0,0 l/m 0 min 0 min 0,0 UV-I 0 W/m 0,0 km/h (0 Bft)
23.05.2013 02:28 7,7 C 6,8 C 92 % 1011,6 hPa 0,0 l/m 0 min 0 min 0,0 UV-I 0 W/m 5,1 km/h (1 Bft)
23.05.2013 02:30 7,7 C 6,8 C 92 % 1011,6 hPa 0,0 l/m 0 min 0 min 0,0 UV-I 0 W/m 2,6 km/h (1 Bft)
23.05.2013 02:32 7,7 C 6,8 C 92 % 1011,6 hPa 0,0 l/m 0 min 0 min 0,0 UV-I 0 W/m 0,0 km/h (0 Bft)
23.05.2013 02:34 7,7 C 6,8 C 92 % 1011,5 hPa 0,0 l/m 0 min 0 min 0,0 UV-I 0 W/m 0,0 km/h (0 Bft)
23.05.2013 02:36 7,7 C 6,8 C 93 % 1011,4 hPa 0,0 l/m 0 min 0 min 0,0 UV-I 0 W/m 2,6 km/h (1 Bft)
23.05.2013 02:38 7,7 C 6,8 C 93 % 1011,4 hPa 0,0 l/m 0 min 0 min 0,0 UV-I 0 W/m 0,0 km/h (0 Bft)
23.05.2013 02:40 7,7 C 6,8 C 93 % 1011,4 hPa 0,0 l/m 0 min 0 min 0,0 UV-I 0 W/m 0,0 km/h (0 Bft)
23.05.2013 02:42 7,7 C 6,8 C 93 % 1011,4 hPa 0,0 l/m 0 min 0 min 0,0 UV-I 0 W/m 0,0 km/h (0 Bft)
23.05.2013 02:44 7,7 C 6,8 C 93 % 1011,3 hPa 0,0 l/m 0 min 0 min 0,0 UV-I 0 W/m 0,0 km/h (0 Bft)
23.05.2013 02:46 7,7 C 6,8 C 93 % 1011,3 hPa 0,0 l/m 0 min 0 min 0,0 UV-I 0 W/m 0,0 km/h (0 Bft)
23.05.2013 02:48 7,7 C 6,8 C 93 % 1011,3 hPa 0,0 l/m 0 min 0 min 0,0 UV-I 0 W/m 2,6 km/h (1 Bft)
23.05.2013 02:50 7,7 C 6,8 C 93 % 1011,2 hPa 0,0 l/m 0 min 0 min 0,0 UV-I 0 W/m 0,0 km/h (0 Bft)
23.05.2013 02:52 7,7 C 6,8 C 93 % 1011,2 hPa 0,0 l/m 0 min 0 min 0,0 UV-I 0 W/m 0,0 km/h (0 Bft)
23.05.2013 02:54 7,7 C 6,8 C 93 % 1011,1 hPa 0,0 l/m 0 min 2 min 0,0 UV-I 0 W/m 0,0 km/h (0 Bft)
23.05.2013 02:56 7,7 C 6,8 C 93 % 1011,1 hPa 0,0 l/m 0 min 0 min 0,0 UV-I 0 W/m 0,0 km/h (0 Bft)
23.05.2013 02:58 7,7 C 6,8 C 93 % 1011,1 hPa 0,0 l/m 0 min 0 min 0,0 UV-I 0 W/m 0,0 km/h (0 Bft)
23.05.2013 03:00 7,7 C 6,8 C 93 % 1011,0 hPa 0,0 l/m 0 min 0 min 0,0 UV-I 0 W/m 0,0 km/h (0 Bft)
23.05.2013 03:02 7,7 C 6,8 C 93 % 1010,9 hPa 0,0 l/m 0 min 0 min 0,0 UV-I 0 W/m 0,0 km/h (0 Bft)
23.05.2013 03:05 7,7 C 6,8 C 93 % 1010,9 hPa 0,0 l/m 0 min 2 min 0,0 UV-I 0 W/m 0,0 km/h (0 Bft)
23.05.2013 03:06 7,7 C 6,8 C 93 % 1010,9 hPa 0,0 l/m 0 min 1 min 0,0 UV-I 0 W/m 0,0 km/h (0 Bft)
23.05.2013 03:08 7,7 C 6,8 C 93 % 1010,8 hPa 0,0 l/m 0 min 2 min 0,0 UV-I 0 W/m 0,0 km/h (0 Bft)
23.05.2013 03:10 7,7 C 6,8 C 93 % 1010,7 hPa 0,0 l/m 0 min 2 min 0,0 UV-I 0 W/m 0,0 km/h (0 Bft)
23.05.2013 03:12 7,7 C 6,8 C 93 % 1010,7 hPa 0,0 l/m 0 min 2 min 0,0 UV-I 0 W/m 0,0 km/h (0 Bft)
23.05.2013 03:14 7,7 C 6,8 C 93 % 1010,7 hPa 0,0 l/m 0 min 2 min 0,0 UV-I 0 W/m 0,0 km/h (0 Bft)
23.05.2013 03:16 7,7 C 6,8 C 93 % 1010,6 hPa 0,0 l/m 0 min 2 min 0,0 UV-I 0 W/m 0,0 km/h (0 Bft)
23.05.2013 03:18 7,7 C 6,8 C 94 % 1010,6 hPa 0,0 l/m 0 min 2 min 0,0 UV-I 0 W/m 0,0 km/h (0 Bft)
23.05.2013 03:20 7,7 C 6,8 C 94 % 1010,6 hPa 0,0 l/m 0 min 0 min 0,0 UV-I 0 W/m 0,0 km/h (0 Bft)
23.05.2013 03:22 7,7 C 6,8 C 94 % 1010,6 hPa 0,0 l/m 0 min 2 min 0,0 UV-I 0 W/m 5,1 km/h (1 Bft)
23.05.2013 03:24 7,7 C 6,2 C 94 % 1010,6 hPa 0,0 l/m 0 min 0 min 0,0 UV-I 0 W/m 0,0 km/h (0 Bft)
23.05.2013 03:26 7,7 C 6,2 C 94 % 1010,6 hPa 0,0 l/m 0 min 0 min 0,0 UV-I 0 W/m 2,6 km/h (1 Bft)
23.05.2013 03:28 7,7 C 6,2 C 94 % 1010,6 hPa 0,0 l/m 0 min 0 min 0,0 UV-I 0 W/m 7,7 km/h (2 Bft)
23.05.2013 03:30 7,6 C 6,2 C 94 % 1010,6 hPa 0,0 l/m 0 min 2 min 0,0 UV-I 0 W/m 2,6 km/h (1 Bft)
23.05.2013 03:32 7,6 C 6,2 C 94 % 1010,6 hPa 0,0 l/m 0 min 2 min 0,0 UV-I 0 W/m 7,7 km/h (2 Bft)
23.05.2013 03:34 7,6 C 6,2 C 94 % 1010,5 hPa 0,0 l/m 0 min 0 min 0,0 UV-I 0 W/m 2,6 km/h (1 Bft)
23.05.2013 03:36 7,6 C 6,2 C 94 % 1010,5 hPa 0,0 l/m 0 min 2 min 0,0 UV-I 0 W/m 5,1 km/h (1 Bft)
23.05.2013 03:38 7,6 C 6,2 C 94 % 1010,4 hPa 0,0 l/m 0 min 2 min 0,0 UV-I 0 W/m 0,0 km/h (0 Bft)
23.05.2013 03:40 7,6 C 6,2 C 94 % 1010,5 hPa 0,0 l/m 0 min 2 min 0,0 UV-I 0 W/m 2,6 km/h (1 Bft)
23.05.2013 03:42 7,6 C 6,2 C 94 % 1010,3 hPa 0,0 l/m 0 min 2 min 0,0 UV-I 0 W/m 0,0 km/h (0 Bft)
23.05.2013 03:44 7,5 C 6,2 C 94 % 1010,4 hPa 0,2 l/m 0 min 2 min 0,0 UV-I 0 W/m 7,7 km/h (2 Bft)
23.05.2013 03:46 7,5 C 6,2 C 94 % 1010,3 hPa 0,0 l/m 0 min 2 min 0,0 UV-I 0 W/m 0,0 km/h (0 Bft)
23.05.2013 03:48 7,4 C 6,2 C 94 % 1010,5 hPa 0,0 l/m 0 min 2 min 0,0 UV-I 0 W/m 0,0 km/h (0 Bft)
23.05.2013 03:50 7,4 C 6,2 C 94 % 1010,4 hPa 0,0 l/m 0 min 2 min 0,0 UV-I 0 W/m 5,1 km/h (1 Bft)
23.05.2013 03:52 7,3 C 5,7 C 93 % 1010,4 hPa 0,0 l/m 0 min 2 min 0,0 UV-I 0 W/m 5,1 km/h (1 Bft)
23.05.2013 03:54 7,3 C 5,7 C 93 % 1010,4 hPa 0,0 l/m 0 min 2 min 0,0 UV-I 0 W/m 7,7 km/h (2 Bft)
23.05.2013 03:56 7,2 C 5,7 C 93 % 1010,3 hPa 0,2 l/m 0 min 2 min 0,0 UV-I 0 W/m 5,1 km/h (1 Bft)
23.05.2013 03:58 7,2 C 5,7 C 93 % 1010,2 hPa 0,0 l/m 0 min 2 min 0,0 UV-I 0 W/m 0,0 km/h (0 Bft)
23.05.2013 04:00 7,1 C 5,1 C 93 % 1010,2 hPa 0,0 l/m 0 min 2 min 0,0 UV-I 0 W/m 0,0 km/h (0 Bft)
23.05.2013 04:02 7,1 C 5,1 C 93 % 1010,2 hPa 0,2 l/m 0 min 2 min 0,0 UV-I 0 W/m 0,0 km/h (0 Bft)
23.05.2013 04:04 7,0 C 5,1 C 93 % 1010,2 hPa 0,0 l/m 0 min 2 min 0,0 UV-I 0 W/m 0,0 km/h (0 Bft)
23.05.2013 04:06 6,9 C 5,1 C 92 % 1010,2 hPa 0,0 l/m 0 min 2 min 0,0 UV-I 0 W/m 2,6 km/h (1 Bft)
23.05.2013 04:08 6,9 C 5,1 C 92 % 1010,2 hPa 0,2 l/m 0 min 2 min 0,0 UV-I 0 W/m 0,0 km/h (0 Bft)
23.05.2013 04:10 6,9 C 5,1 C 92 % 1010,1 hPa 0,0 l/m 0 min 2 min 0,0 UV-I 0 W/m 0,0 km/h (0 Bft)
23.05.2013 04:12 6,8 C 5,1 C 92 % 1010,0 hPa 0,0 l/m 0 min 2 min 0,0 UV-I 0 W/m 5,1 km/h (1 Bft)
23.05.2013 04:14 6,8 C 5,1 C 92 % 1010,0 hPa 0,0 l/m 0 min 2 min 0,0 UV-I 0 W/m 5,1 km/h (1 Bft)
23.05.2013 04:16 6,8 C 5,1 C 92 % 1010,0 hPa 0,0 l/m 0 min 2 min 0,0 UV-I 0 W/m 2,6 km/h (1 Bft)
23.05.2013 04:18 6,7 C 5,1 C 92 % 1009,9 hPa 0,0 l/m 0 min 2 min 0,0 UV-I 0 W/m 0,0 km/h (0 Bft)
23.05.2013 04:20 6,7 C 5,1 C 92 % 1009,9 hPa 0,0 l/m 0 min 2 min 0,0 UV-I 0 W/m 2,6 km/h (1 Bft)
23.05.2013 04:22 6,7 C 5,1 C 92 % 1009,9 hPa 0,2 l/m 0 min 2 min 0,0 UV-I 0 W/m 0,0 km/h (0 Bft)
23.05.2013 04:24 6,7 C 5,1 C 92 % 1009,9 hPa 0,0 l/m 0 min 2 min 0,0 UV-I 0 W/m 0,0 km/h (0 Bft)
23.05.2013 04:26 6,6 C 5,1 C 92 % 1009,9 hPa 0,0 l/m 0 min 2 min 0,0 UV-I 0 W/m 0,0 km/h (0 Bft)
23.05.2013 04:28 6,6 C 5,1 C 92 % 1009,8 hPa 0,0 l/m 0 min 2 min 0,0 UV-I 0 W/m 7,7 km/h (2 Bft)
23.05.2013 04:30 6,6 C 5,1 C 92 % 1009,7 hPa 0,0 l/m 0 min 2 min 0,0 UV-I 0 W/m 0,0 km/h (0 Bft)
23.05.2013 04:32 6,5 C 5,1 C 92 % 1009,6 hPa 0,0 l/m 0 min 2 min 0,0 UV-I 0 W/m 12,9 km/h (3 Bft)
23.05.2013 04:34 6,4 C 4,6 C 92 % 1009,6 hPa 0,0 l/m 0 min 2 min 0,0 UV-I 0 W/m 10,3 km/h (2 Bft)
23.05.2013 04:36 6,4 C 4,6 C 96 % 1009,6 hPa 0,0 l/m 0 min 2 min 0,0 UV-I 0 W/m 2,6 km/h (1 Bft)
23.05.2013 04:38 6,3 C 4,6 C 92 % 1009,6 hPa 0,0 l/m 0 min 2 min 0,0 UV-I 0 W/m 7,7 km/h (2 Bft)
23.05.2013 04:40 6,3 C 4,6 C 92 % 1009,6 hPa 0,0 l/m 0 min 2 min 0,0 UV-I 0 W/m 0,0 km/h (0 Bft)
23.05.2013 04:42 6,2 C 4,6 C 92 % 1009,5 hPa 0,0 l/m 0 min 2 min 0,0 UV-I 0 W/m 5,1 km/h (1 Bft)
23.05.2013 04:44 6,2 C 4,6 C 92 % 1009,6 hPa 0,2 l/m 0 min 2 min 0,0 UV-I 0 W/m 7,7 km/h (2 Bft)
23.05.2013 04:46 6,2 C 4,6 C 92 % 1009,6 hPa 0,0 l/m 0 min 2 min 0,0 UV-I 0 W/m 10,3 km/h (2 Bft)
23.05.2013 04:48 6,1 C 4,6 C 92 % 1009,5 hPa 0,0 l/m 0 min 2 min 0,0 UV-I 0 W/m 5,1 km/h (1 Bft)
23.05.2013 04:50 6,1 C 4,6 C 92 % 1009,5 hPa 0,0 l/m 0 min 2 min 0,0 UV-I 0 W/m 0,0 km/h (0 Bft)
23.05.2013 04:52 6,0 C 4,6 C 92 % 1009,5 hPa 0,0 l/m 0 min 2 min 0,0 UV-I 0 W/m 0,0 km/h (0 Bft)
23.05.2013 04:54 5,9 C 4,6 C 92 % 1009,4 hPa 0,0 l/m 0 min 2 min 0,0 UV-I 0 W/m 0,0 km/h (0 Bft)
23.05.2013 04:56 5,9 C 4,6 C 92 % 1009,4 hPa 0,0 l/m 0 min 0 min 0,0 UV-I 0 W/m 0,0 km/h (0 Bft)
23.05.2013 04:58 5,9 C 4,6 C 92 % 1009,3 hPa 0,0 l/m 0 min 2 min 0,0 UV-I 0 W/m 7,7 km/h (2 Bft)
23.05.2013 05:00 5,9 C 4,6 C 92 % 1009,3 hPa 0,0 l/m 0 min 2 min 0,0 UV-I 0 W/m 2,6 km/h (1 Bft)
23.05.2013 05:02 5,8 C 4,6 C 93 % 1009,3 hPa 0,0 l/m 0 min 2 min 0,0 UV-I 0 W/m 7,7 km/h (2 Bft)
23.05.2013 05:04 5,8 C 4,6 C 93 % 1009,3 hPa 0,0 l/m 0 min 2 min 0,0 UV-I 0 W/m 5,1 km/h (1 Bft)
23.05.2013 05:06 5,8 C 4,6 C 93 % 1009,3 hPa 0,0 l/m 0 min 2 min 0,0 UV-I 0 W/m 0,0 km/h (0 Bft)
23.05.2013 05:08 5,8 C 4,6 C 93 % 1009,3 hPa 0,0 l/m 0 min 2 min 0,0 UV-I 0 W/m 7,7 km/h (2 Bft)
23.05.2013 05:10 5,8 C 4,6 C 93 % 1009,2 hPa 0,0 l/m 0 min 2 min 0,0 UV-I 0 W/m 0,0 km/h (0 Bft)
23.05.2013 05:12 5,7 C 4,6 C 93 % 1009,1 hPa 0,0 l/m 0 min 2 min 0,0 UV-I 0 W/m 0,0 km/h (0 Bft)
23.05.2013 05:14 5,7 C 4,6 C 93 % 1009,2 hPa 0,0 l/m 0 min 2 min 0,0 UV-I 0 W/m 2,6 km/h (1 Bft)
23.05.2013 05:16 5,7 C 4,6 C 93 % 1009,2 hPa 0,0 l/m 0 min 2 min 0,0 UV-I 0 W/m 0,0 km/h (0 Bft)
23.05.2013 05:18 5,7 C 4,6 C 93 % 1009,0 hPa 0,0 l/m 0 min 2 min 0,0 UV-I 0 W/m 0,0 km/h (0 Bft)
23.05.2013 05:20 5,7 C 4,6 C 93 % 1009,0 hPa 0,0 l/m 0 min 2 min 0,0 UV-I 0 W/m 2,6 km/h (1 Bft)
23.05.2013 05:22 5,7 C 4,6 C 93 % 1009,0 hPa 0,0 l/m 0 min 0 min 0,0 UV-I 0 W/m 0,0 km/h (0 Bft)
23.05.2013 05:24 5,7 C 4,6 C 93 % 1009,0 hPa 0,0 l/m 0 min 0 min 0,0 UV-I 0 W/m 0,0 km/h (0 Bft)
23.05.2013 05:26 5,7 C 4,6 C 93 % 1009,0 hPa 0,0 l/m 0 min 0 min 0,0 UV-I 0 W/m 0,0 km/h (0 Bft)
23.05.2013 05:28 5,6 C 4,6 C 93 % 1008,9 hPa 0,0 l/m 0 min 2 min 0,0 UV-I 0 W/m 0,0 km/h (0 Bft)
23.05.2013 05:30 5,6 C 4,6 C 93 % 1008,9 hPa 0,0 l/m 0 min 2 min 0,0 UV-I 0 W/m 0,0 km/h (0 Bft)
23.05.2013 05:32 5,6 C 4,6 C 93 % 1008,8 hPa 0,0 l/m 0 min 0 min 0,0 UV-I 0 W/m 2,6 km/h (1 Bft)
23.05.2013 05:34 5,6 C 4,6 C 93 % 1008,8 hPa 0,0 l/m 0 min 0 min 0,0 UV-I 0 W/m 0,0 km/h (0 Bft)
23.05.2013 05:36 5,6 C 4,6 C 93 % 1008,6 hPa 0,0 l/m 0 min 0 min 0,0 UV-I 0 W/m 0,0 km/h (0 Bft)
23.05.2013 05:38 5,6 C 4,6 C 93 % 1008,6 hPa 0,0 l/m 0 min 0 min 0,0 UV-I 0 W/m 5,1 km/h (1 Bft)
23.05.2013 05:40 5,6 C 4,6 C 94 % 1008,6 hPa 0,0 l/m 0 min 0 min 0,0 UV-I 0 W/m 2,6 km/h (1 Bft)
23.05.2013 05:42 5,6 C 4,6 C 94 % 1008,5 hPa 0,0 l/m 0 min 0 min 0,0 UV-I 0 W/m 7,7 km/h (2 Bft)
23.05.2013 05:44 5,5 C 4,6 C 94 % 1008,5 hPa 0,0 l/m 0 min 0 min 0,0 UV-I 0 W/m 0,0 km/h (0 Bft)
23.05.2013 05:46 5,5 C 4,6 C 94 % 1008,5 hPa 0,0 l/m 0 min 0 min 0,0 UV-I 0 W/m 5,1 km/h (1 Bft)
23.05.2013 05:48 5,5 C 4,6 C 94 % 1008,4 hPa 0,0 l/m 0 min 2 min 0,0 UV-I 0 W/m 7,7 km/h (2 Bft)
23.05.2013 05:50 5,5 C 4,6 C 94 % 1008,5 hPa 0,0 l/m 0 min 2 min 0,0 UV-I 0 W/m 2,6 km/h (1 Bft)
23.05.2013 05:52 5,5 C 4,6 C 94 % 1008,4 hPa 0,0 l/m 0 min 0 min 0,0 UV-I 5 W/m 0,0 km/h (0 Bft)
23.05.2013 05:54 5,5 C 4,6 C 94 % 1008,3 hPa 0,0 l/m 0 min 0 min 0,0 UV-I 5 W/m 10,3 km/h (2 Bft)
23.05.2013 05:56 5,4 C 4,6 C 94 % 1008,3 hPa 0,0 l/m 0 min 0 min 0,0 UV-I 5 W/m 0,0 km/h (0 Bft)
23.05.2013 05:58 5,4 C 4,6 C 94 % 1008,3 hPa 0,0 l/m 0 min 0 min 0,0 UV-I 7 W/m 0,0 km/h (0 Bft)
23.05.2013 06:00 5,4 C 4,6 C 94 % 1008,3 hPa 0,0 l/m 0 min 0 min 0,0 UV-I 7 W/m 0,0 km/h (0 Bft)
23.05.2013 06:02 5,4 C 4,6 C 94 % 1008,3 hPa 0,0 l/m 0 min 0 min 0,0 UV-I 7 W/m 0,0 km/h (0 Bft)
23.05.2013 06:04 5,4 C 4,6 C 94 % 1008,3 hPa 0,0 l/m 0 min 0 min 0,0 UV-I 7 W/m 0,0 km/h (0 Bft)
23.05.2013 06:06 5,4 C 4,6 C 94 % 1008,3 hPa 0,0 l/m 0 min 0 min 0,0 UV-I 9 W/m 0,0 km/h (0 Bft)
23.05.2013 06:08 5,4 C 4,6 C 94 % 1008,3 hPa 0,0 l/m 0 min 0 min 0,0 UV-I 11 W/m 0,0 km/h (0 Bft)
23.05.2013 06:10 5,4 C 4,6 C 94 % 1008,4 hPa 0,0 l/m 0 min 0 min 0,0 UV-I 12 W/m 2,6 km/h (1 Bft)
23.05.2013 06:12 5,4 C 4,6 C 94 % 1008,4 hPa 0,0 l/m 0 min 0 min 0,0 UV-I 14 W/m 7,7 km/h (2 Bft)
23.05.2013 06:14 5,4 C 4,6 C 94 % 1008,3 hPa 0,0 l/m 0 min 0 min 0,0 UV-I 14 W/m 7,7 km/h (2 Bft)
23.05.2013 06:16 5,4 C 4,6 C 94 % 1008,5 hPa 0,0 l/m 0 min 0 min 0,0 UV-I 14 W/m 0,0 km/h (0 Bft)
23.05.2013 06:18 5,4 C 4,6 C 94 % 1008,4 hPa 0,0 l/m 0 min 0 min 0,0 UV-I 14 W/m 5,1 km/h (1 Bft)
23.05.2013 06:20 5,4 C 4,6 C 95 % 1008,5 hPa 0,0 l/m 0 min 0 min 0,0 UV-I 14 W/m 0,0 km/h (0 Bft)
23.05.2013 06:22 5,4 C 4,6 C 95 % 1008,3 hPa 0,0 l/m 0 min 0 min 0,0 UV-I 18 W/m 0,0 km/h (0 Bft)
23.05.2013 06:24 5,4 C 4,6 C 95 % 1008,2 hPa 0,0 l/m 0 min 0 min 0,0 UV-I 21 W/m 0,0 km/h (0 Bft)
23.05.2013 06:26 5,4 C 4,6 C 95 % 1008,3 hPa 0,0 l/m 0 min 2 min 0,0 UV-I 28 W/m 0,0 km/h (0 Bft)
23.05.2013 06:28 5,5 C 4,6 C 95 % 1008,2 hPa 0,0 l/m 0 min 2 min 0,0 UV-I 39 W/m 5,1 km/h (1 Bft)
23.05.2013 06:30 5,5 C 5,1 C 95 % 1008,2 hPa 0,0 l/m 0 min 2 min 0,0 UV-I 42 W/m 5,1 km/h (1 Bft)
23.05.2013 06:32 5,5 C 5,1 C 95 % 1008,2 hPa 0,0 l/m 0 min 2 min 0,0 UV-I 37 W/m 0,0 km/h (0 Bft)
23.05.2013 06:34 5,5 C 4,6 C 95 % 1008,2 hPa 0,0 l/m 0 min 0 min 0,0 UV-I 35 W/m 5,1 km/h (1 Bft)
23.05.2013 06:36 5,5 C 5,1 C 95 % 1008,2 hPa 0,0 l/m 0 min 2 min 0,0 UV-I 33 W/m 0,0 km/h (0 Bft)
23.05.2013 06:38 5,5 C 5,1 C 95 % 1008,2 hPa 0,0 l/m 0 min 0 min 0,0 UV-I 25 W/m 0,0 km/h (0 Bft)
23.05.2013 06:40 5,6 C 5,1 C 95 % 1008,2 hPa 0,0 l/m 0 min 2 min 0,0 UV-I 19 W/m 0,0 km/h (0 Bft)
23.05.2013 06:42 5,6 C 5,1 C 95 % 1008,2 hPa 0,0 l/m 0 min 0 min 0,0 UV-I 16 W/m 0,0 km/h (0 Bft)
23.05.2013 06:44 5,6 C 5,1 C 95 % 1008,2 hPa 0,0 l/m 0 min 2 min 0,0 UV-I 14 W/m 0,0 km/h (0 Bft)
23.05.2013 06:46 5,6 C 4,6 C 95 % 1008,1 hPa 0,0 l/m 0 min 2 min 0,0 UV-I 12 W/m 0,0 km/h (0 Bft)
23.05.2013 06:48 5,6 C 4,6 C 95 % 1008,1 hPa 0,2 l/m 0 min 2 min 0,0 UV-I 12 W/m 0,0 km/h (0 Bft)
23.05.2013 06:50 5,6 C 4,6 C 95 % 1008,1 hPa 0,0 l/m 0 min 2 min 0,0 UV-I 12 W/m 0,0 km/h (0 Bft)
23.05.2013 06:52 5,6 C 4,6 C 95 % 1008,0 hPa 0,0 l/m 0 min 2 min 0,0 UV-I 14 W/m 0,0 km/h (0 Bft)
23.05.2013 06:54 5,6 C 4,6 C 95 % 1008,0 hPa 0,0 l/m 0 min 2 min 0,0 UV-I 14 W/m 0,0 km/h (0 Bft)
23.05.2013 06:56 5,6 C 5,1 C 95 % 1008,0 hPa 0,0 l/m 0 min 2 min 0,0 UV-I 14 W/m 0,0 km/h (0 Bft)
23.05.2013 06:58 5,6 C 5,1 C 95 % 1007,9 hPa 0,0 l/m 0 min 2 min 0,0 UV-I 14 W/m 0,0 km/h (0 Bft)
23.05.2013 07:00 5,6 C 5,1 C 95 % 1007,8 hPa 0,0 l/m 0 min 2 min 0,0 UV-I 16 W/m 0,0 km/h (0 Bft)
23.05.2013 07:02 5,6 C 5,1 C 95 % 1007,8 hPa 0,0 l/m 0 min 2 min 0,0 UV-I 19 W/m 0,0 km/h (0 Bft)
23.05.2013 07:04 5,6 C 5,1 C 95 % 1007,8 hPa 0,0 l/m 0 min 2 min 0,0 UV-I 19 W/m 0,0 km/h (0 Bft)
23.05.2013 07:06 5,6 C 5,1 C 95 % 1007,9 hPa 0,0 l/m 0 min 2 min 0,0 UV-I 14 W/m 0,0 km/h (0 Bft)
23.05.2013 07:08 5,6 C 5,1 C 95 % 1007,9 hPa 0,0 l/m 0 min 2 min 0,0 UV-I 11 W/m 0,0 km/h (0 Bft)
23.05.2013 07:10 5,6 C 5,1 C 95 % 1008,0 hPa 0,0 l/m 0 min 2 min 0,0 UV-I 9 W/m 0,0 km/h (0 Bft)
23.05.2013 07:12 5,6 C 5,1 C 95 % 1007,9 hPa 0,0 l/m 0 min 2 min 0,0 UV-I 11 W/m 0,0 km/h (0 Bft)
23.05.2013 07:14 5,7 C 5,1 C 95 % 1007,9 hPa 0,0 l/m 0 min 2 min 0,0 UV-I 12 W/m 0,0 km/h (0 Bft)
23.05.2013 07:16 5,7 C 5,1 C 95 % 1008,0 hPa 0,0 l/m 0 min 2 min 0,0 UV-I 14 W/m 0,0 km/h (0 Bft)
23.05.2013 07:18 5,7 C 5,1 C 95 % 1008,0 hPa 0,0 l/m 0 min 2 min 0,0 UV-I 14 W/m 0,0 km/h (0 Bft)
23.05.2013 07:20 5,7 C 5,1 C 95 % 1008,0 hPa 0,0 l/m 0 min 2 min 0,0 UV-I 14 W/m 0,0 km/h (0 Bft)
23.05.2013 07:22 5,7 C 5,1 C 95 % 1008,0 hPa 0,0 l/m 0 min 2 min 0,0 UV-I 14 W/m 0,0 km/h (0 Bft)
23.05.2013 07:24 5,7 C 5,1 C 95 % 1008,0 hPa 0,0 l/m 0 min 2 min 0,0 UV-I 14 W/m 0,0 km/h (0 Bft)
23.05.2013 07:26 5,7 C 5,1 C 95 % 1007,9 hPa 0,0 l/m 0 min 2 min 0,0 UV-I 14 W/m 0,0 km/h (0 Bft)
23.05.2013 07:28 5,7 C 5,1 C 95 % 1007,9 hPa 0,0 l/m 0 min 2 min 0,0 UV-I 14 W/m 0,0 km/h (0 Bft)
23.05.2013 07:30 5,7 C 5,1 C 96 % 1007,9 hPa 0,2 l/m 0 min 2 min 0,0 UV-I 14 W/m 0,0 km/h (0 Bft)
23.05.2013 07:32 5,7 C 5,1 C 96 % 1008,0 hPa 0,0 l/m 0 min 2 min 0,0 UV-I 18 W/m 0,0 km/h (0 Bft)
23.05.2013 07:34 5,7 C 5,1 C 96 % 1008,0 hPa 0,0 l/m 0 min 2 min 0,0 UV-I 19 W/m 0,0 km/h (0 Bft)
23.05.2013 07:36 5,7 C 5,1 C 96 % 1008,0 hPa 0,0 l/m 0 min 2 min 0,0 UV-I 21 W/m 0,0 km/h (0 Bft)
23.05.2013 07:38 5,7 C 5,1 C 96 % 1008,1 hPa 0,0 l/m 0 min 2 min 0,0 UV-I 23 W/m 0,0 km/h (0 Bft)
23.05.2013 07:40 5,7 C 5,1 C 96 % 1008,1 hPa 0,0 l/m 0 min 2 min 0,0 UV-I 23 W/m 0,0 km/h (0 Bft)
23.05.2013 07:42 5,7 C 5,1 C 96 % 1008,0 hPa 0,2 l/m 0 min 2 min 0,0 UV-I 21 W/m 0,0 km/h (0 Bft)
23.05.2013 07:44 5,7 C 5,1 C 96 % 1008,0 hPa 0,0 l/m 0 min 2 min 0,0 UV-I 18 W/m 0,0 km/h (0 Bft)
23.05.2013 07:46 5,8 C 5,1 C 96 % 1008,0 hPa 0,0 l/m 0 min 2 min 0,0 UV-I 16 W/m 0,0 km/h (0 Bft)
23.05.2013 07:48 5,8 C 5,1 C 96 % 1008,1 hPa 0,0 l/m 0 min 2 min 0,0 UV-I 12 W/m 0,0 km/h (0 Bft)
23.05.2013 07:50 5,8 C 5,1 C 96 % 1008,0 hPa 0,0 l/m 0 min 2 min 0,0 UV-I 12 W/m 0,0 km/h (0 Bft)
23.05.2013 07:52 5,8 C 5,1 C 96 % 1008,1 hPa 0,2 l/m 0 min 2 min 0,0 UV-I 11 W/m 0,0 km/h (0 Bft)
23.05.2013 07:54 5,8 C 5,1 C 96 % 1008,1 hPa 0,0 l/m 0 min 2 min 0,0 UV-I 11 W/m 0,0 km/h (0 Bft)
23.05.2013 07:56 5,8 C 5,1 C 96 % 1008,0 hPa 0,0 l/m 0 min 2 min 0,0 UV-I 11 W/m 0,0 km/h (0 Bft)
23.05.2013 07:58 5,8 C 5,1 C 96 % 1008,0 hPa 0,2 l/m 0 min 2 min 0,0 UV-I 11 W/m 0,0 km/h (0 Bft)
23.05.2013 08:00 5,8 C 5,1 C 96 % 1008,0 hPa 0,0 l/m 0 min 2 min 0,0 UV-I 11 W/m 0,0 km/h (0 Bft)
23.05.2013 08:02 5,8 C 4,6 C 96 % 1008,0 hPa 0,2 l/m 0 min 2 min 0,0 UV-I 11 W/m 0,0 km/h (0 Bft)
23.05.2013 08:04 5,8 C 4,6 C 96 % 1008,0 hPa 0,0 l/m 0 min 2 min 0,0 UV-I 9 W/m 0,0 km/h (0 Bft)
23.05.2013 08:06 5,8 C 4,6 C 96 % 1007,9 hPa 0,0 l/m 0 min 2 min 0,0 UV-I 11 W/m 0,0 km/h (0 Bft)
23.05.2013 08:08 5,8 C 5,1 C 96 % 1007,9 hPa 0,2 l/m 0 min 2 min 0,0 UV-I 9 W/m 0,0 km/h (0 Bft)
23.05.2013 08:10 5,8 C 4,6 C 96 % 1007,9 hPa 0,2 l/m 0 min 2 min 0,0 UV-I 9 W/m 0,0 km/h (0 Bft)
23.05.2013 08:12 5,8 C 4,6 C 96 % 1007,9 hPa 0,0 l/m 0 min 2 min 0,0 UV-I 11 W/m 0,0 km/h (0 Bft)
23.05.2013 08:14 5,7 C 4,6 C 96 % 1007,8 hPa 0,0 l/m 0 min 2 min 0,0 UV-I 11 W/m 0,0 km/h (0 Bft)
23.05.2013 08:16 5,7 C 4,6 C 96 % 1007,9 hPa 0,2 l/m 0 min 2 min 0,0 UV-I 12 W/m 7,7 km/h (2 Bft)
23.05.2013 08:18 5,7 C 4,6 C 96 % 1007,8 hPa 0,0 l/m 0 min 2 min 0,0 UV-I 14 W/m 0,0 km/h (0 Bft)
23.05.2013 08:20 5,7 C 4,6 C 96 % 1007,8 hPa 0,2 l/m 0 min 2 min 0,0 UV-I 16 W/m 0,0 km/h (0 Bft)
23.05.2013 08:22 5,7 C 4,6 C 96 % 1007,7 hPa 0,0 l/m 0 min 2 min 0,0 UV-I 16 W/m 0,0 km/h (0 Bft)
23.05.2013 08:24 5,7 C 4,6 C 96 % 1007,6 hPa 0,0 l/m 0 min 2 min 0,0 UV-I 18 W/m 0,0 km/h (0 Bft)
23.05.2013 08:26 5,7 C 5,1 C 96 % 1007,6 hPa 0,0 l/m 0 min 2 min 0,0 UV-I 18 W/m 0,0 km/h (0 Bft)
23.05.2013 08:28 5,7 C 5,1 C 96 % 1007,6 hPa 0,2 l/m 0 min 2 min 0,0 UV-I 19 W/m 0,0 km/h (0 Bft)
23.05.2013 08:30 5,7 C 5,1 C 96 % 1007,5 hPa 0,0 l/m 0 min 2 min 0,0 UV-I 21 W/m 0,0 km/h (0 Bft)
23.05.2013 08:32 5,6 C 5,1 C 96 % 1007,4 hPa 0,0 l/m 0 min 2 min 0,0 UV-I 23 W/m 0,0 km/h (0 Bft)
23.05.2013 08:34 5,7 C 5,1 C 96 % 1007,5 hPa 0,2 l/m 0 min 2 min 0,0 UV-I 25 W/m 0,0 km/h (0 Bft)
23.05.2013 08:36 5,6 C 5,1 C 96 % 1007,5 hPa 0,0 l/m 0 min 2 min 0,0 UV-I 25 W/m 0,0 km/h (0 Bft)
23.05.2013 08:38 5,6 C 5,1 C 96 % 1007,5 hPa 0,0 l/m 0 min 2 min 0,0 UV-I 26 W/m 0,0 km/h (0 Bft)
23.05.2013 08:40 5,6 C 5,1 C 96 % 1007,5 hPa 0,0 l/m 0 min 2 min 0,0 UV-I 26 W/m 0,0 km/h (0 Bft)
23.05.2013 08:42 5,6 C 5,1 C 96 % 1007,4 hPa 0,2 l/m 0 min 2 min 0,0 UV-I 28 W/m 0,0 km/h (0 Bft)
23.05.2013 08:44 5,6 C 5,1 C 96 % 1007,4 hPa 0,0 l/m 0 min 2 min 0,0 UV-I 30 W/m 0,0 km/h (0 Bft)
23.05.2013 08:46 5,6 C 5,1 C 96 % 1007,4 hPa 0,0 l/m 0 min 2 min 0,0 UV-I 32 W/m 0,0 km/h (0 Bft)
23.05.2013 08:48 5,6 C 5,1 C 96 % 1007,3 hPa 0,0 l/m 0 min 2 min 0,0 UV-I 33 W/m 0,0 km/h (0 Bft)
23.05.2013 08:50 5,6 C 5,1 C 96 % 1007,3 hPa 0,2 l/m 0 min 2 min 0,0 UV-I 37 W/m 0,0 km/h (0 Bft)
23.05.2013 08:52 5,6 C 5,1 C 96 % 1007,3 hPa 0,0 l/m 0 min 2 min 0,0 UV-I 37 W/m 0,0 km/h (0 Bft)
23.05.2013 08:54 5,6 C 5,1 C 96 % 1007,2 hPa 0,0 l/m 0 min 2 min 0,0 UV-I 33 W/m 0,0 km/h (0 Bft)
23.05.2013 08:56 5,7 C 5,1 C 96 % 1007,3 hPa 0,2 l/m 0 min 2 min 0,0 UV-I 33 W/m 0,0 km/h (0 Bft)
23.05.2013 08:58 5,6 C 5,1 C 96 % 1007,2 hPa 0,0 l/m 0 min 2 min 0,0 UV-I 35 W/m 0,0 km/h (0 Bft)
23.05.2013 09:00 5,7 C 5,1 C 96 % 1007,3 hPa 0,2 l/m 0 min 2 min 0,0 UV-I 32 W/m 0,0 km/h (0 Bft)
23.05.2013 09:02 5,7 C 5,1 C 96 % 1007,4 hPa 0,0 l/m 0 min 2 min 0,0 UV-I 30 W/m 0,0 km/h (0 Bft)
23.05.2013 09:04 5,7 C 5,1 C 96 % 1007,4 hPa 0,0 l/m 0 min 2 min 0,0 UV-I 28 W/m 0,0 km/h (0 Bft)
23.05.2013 09:06 5,7 C 4,6 C 96 % 1007,4 hPa 0,0 l/m 0 min 2 min 0,0 UV-I 30 W/m 0,0 km/h (0 Bft)
23.05.2013 09:08 5,7 C 5,1 C 96 % 1007,5 hPa 0,0 l/m 0 min 2 min 0,0 UV-I 32 W/m 0,0 km/h (0 Bft)
23.05.2013 09:10 5,7 C 5,1 C 96 % 1007,5 hPa 0,2 l/m 0 min 2 min 0,0 UV-I 35 W/m 0,0 km/h (0 Bft)
23.05.2013 09:12 5,7 C 5,1 C 96 % 1007,5 hPa 0,0 l/m 0 min 2 min 0,0 UV-I 40 W/m 0,0 km/h (0 Bft)
23.05.2013 09:14 5,7 C 5,1 C 96 % 1007,5 hPa 0,0 l/m 0 min 2 min 0,0 UV-I 42 W/m 0,0 km/h (0 Bft)
23.05.2013 09:16 5,7 C 5,1 C 96 % 1007,4 hPa 0,0 l/m 0 min 2 min 0,0 UV-I 46 W/m 0,0 km/h (0 Bft)
23.05.2013 09:18 5,7 C 5,1 C 96 % 1007,5 hPa 0,2 l/m 0 min 2 min 0,0 UV-I 58 W/m 0,0 km/h (0 Bft)
23.05.2013 09:20 5,7 C 5,1 C 96 % 1007,4 hPa 0,0 l/m 0 min 2 min 0,0 UV-I 63 W/m 0,0 km/h (0 Bft)
23.05.2013 09:22 5,7 C 5,1 C 96 % 1007,4 hPa 0,0 l/m 0 min 2 min 0,0 UV-I 69 W/m 0,0 km/h (0 Bft)
23.05.2013 09:24 5,7 C 5,1 C 96 % 1007,4 hPa 0,0 l/m 0 min 2 min 0,0 UV-I 76 W/m 2,6 km/h (1 Bft)
23.05.2013 09:26 5,7 C 5,1 C 96 % 1007,4 hPa 0,0 l/m 0 min 2 min 0,0 UV-I 81 W/m 0,0 km/h (0 Bft)
23.05.2013 09:28 5,7 C 5,1 C 96 % 1007,3 hPa 0,0 l/m 0 min 2 min 0,0 UV-I 81 W/m 0,0 km/h (0 Bft)
23.05.2013 09:30 5,7 C 5,1 C 96 % 1007,3 hPa 0,0 l/m 0 min 2 min 0,0 UV-I 77 W/m 5,1 km/h (1 Bft)
23.05.2013 09:32 5,7 C 5,1 C 96 % 1007,3 hPa 0,0 l/m 0 min 2 min 0,0 UV-I 67 W/m 5,1 km/h (1 Bft)
23.05.2013 09:34 5,7 C 5,1 C 96 % 1007,3 hPa 0,2 l/m 0 min 2 min 0,0 UV-I 69 W/m 5,1 km/h (1 Bft)
23.05.2013 09:36 5,7 C 5,1 C 96 % 1007,2 hPa 0,0 l/m 0 min 2 min 0,0 UV-I 74 W/m 0,0 km/h (0 Bft)
23.05.2013 09:38 5,7 C 5,1 C 96 % 1007,3 hPa 0,0 l/m 0 min 2 min 0,0 UV-I 72 W/m 10,3 km/h (2 Bft)
23.05.2013 09:40 5,7 C 5,1 C 96 % 1007,3 hPa 0,0 l/m 0 min 2 min 0,0 UV-I 70 W/m 7,7 km/h (2 Bft)
23.05.2013 09:42 5,6 C 5,1 C 96 % 1007,3 hPa 0,0 l/m 0 min 2 min 0,0 UV-I 81 W/m 0,0 km/h (0 Bft)
23.05.2013 09:44 5,6 C 5,1 C 96 % 1007,3 hPa 0,0 l/m 0 min 2 min 0,0 UV-I 81 W/m 5,1 km/h (1 Bft)
23.05.2013 09:46 5,6 C 5,1 C 96 % 1007,3 hPa 0,0 l/m 0 min 2 min 0,0 UV-I 60 W/m 10,3 km/h (2 Bft)
23.05.2013 09:48 5,6 C 5,1 C 96 % 1007,2 hPa 0,0 l/m 0 min 2 min 0,0 UV-I 79 W/m 7,7 km/h (2 Bft)
23.05.2013 09:50 5,6 C 5,1 C 96 % 1007,3 hPa 0,0 l/m 0 min 2 min 0,0 UV-I 107 W/m 12,9 km/h (3 Bft)
23.05.2013 09:52 5,6 C 5,1 C 96 % 1007,3 hPa 0,0 l/m 0 min 2 min 0,0 UV-I 158 W/m 18,0 km/h (3 Bft)
23.05.2013 09:54 5,6 C 5,1 C 96 % 1007,3 hPa 0,0 l/m 0 min 2 min 0,0 UV-I 176 W/m 12,9 km/h (3 Bft)
23.05.2013 09:56 5,6 C 5,1 C 96 % 1007,3 hPa 0,2 l/m 0 min 2 min 0,0 UV-I 200 W/m 18,0 km/h (3 Bft)
23.05.2013 09:58 5,6 C 5,1 C 96 % 1007,4 hPa 0,0 l/m 0 min 2 min 0,0 UV-I 246 W/m 12,9 km/h (3 Bft)
23.05.2013 10:00 5,5 C 5,1 C 96 % 1007,3 hPa 0,0 l/m 0 min 2 min 0,0 UV-I 250 W/m 15,4 km/h (3 Bft)
23.05.2013 10:02 5,5 C 5,1 C 96 % 1007,3 hPa 0,0 l/m 0 min 2 min 0,0 UV-I 218 W/m 10,3 km/h (2 Bft)
23.05.2013 10:04 5,5 C 5,1 C 96 % 1007,5 hPa 0,0 l/m 0 min 2 min 0,0 UV-I 172 W/m 20,6 km/h (4 Bft)
23.05.2013 10:06 5,5 C 5,1 C 96 % 1007,5 hPa 0,0 l/m 0 min 2 min 0,0 UV-I 153 W/m 20,6 km/h (4 Bft)
23.05.2013 10:08 5,5 C 5,1 C 96 % 1007,5 hPa 0,0 l/m 0 min 2 min 0,0 UV-I 137 W/m 12,9 km/h (3 Bft)
23.05.2013 10:10 5,4 C 4,6 C 96 % 1007,4 hPa 0,0 l/m 0 min 2 min 0,0 UV-I 132 W/m 18,0 km/h (3 Bft)
23.05.2013 10:12 5,4 C 5,1 C 96 % 1007,5 hPa 0,0 l/m 0 min 2 min 0,0 UV-I 137 W/m 7,7 km/h (2 Bft)
23.05.2013 10:14 5,5 C 5,1 C 96 % 1007,5 hPa 0,0 l/m 0 min 2 min 0,0 UV-I 149 W/m 10,3 km/h (2 Bft)
23.05.2013 10:16 5,4 C 5,1 C 96 % 1007,4 hPa 0,0 l/m 0 min 2 min 0,0 UV-I 171 W/m 23,2 km/h (4 Bft)
23.05.2013 10:18 5,4 C 5,1 C 96 % 1007,4 hPa 0,0 l/m 0 min 2 min 0,0 UV-I 183 W/m 10,3 km/h (2 Bft)
23.05.2013 10:20 5,4 C 5,1 C 96 % 1007,4 hPa 0,0 l/m 0 min 2 min 0,0 UV-I 188 W/m 12,9 km/h (3 Bft)
23.05.2013 10:22 5,4 C 5,1 C 96 % 1007,4 hPa 0,0 l/m 0 min 2 min 0,0 UV-I 176 W/m 10,3 km/h (2 Bft)
23.05.2013 10:24 5,4 C 5,1 C 96 % 1007,4 hPa 0,0 l/m 0 min 2 min 0,0 UV-I 153 W/m 15,4 km/h (3 Bft)
23.05.2013 10:26 5,4 C 5,1 C 96 % 1007,5 hPa 0,0 l/m 0 min 2 min 0,0 UV-I 158 W/m 15,4 km/h (3 Bft)
23.05.2013 10:28 5,4 C 4,6 C 96 % 1007,4 hPa 0,0 l/m 0 min 2 min 0,0 UV-I 158 W/m 18,0 km/h (3 Bft)
23.05.2013 10:30 5,4 C 4,6 C 96 % 1007,5 hPa 0,0 l/m 0 min 2 min 0,0 UV-I 163 W/m 20,6 km/h (4 Bft)
23.05.2013 10:32 5,4 C 4,6 C 96 % 1007,5 hPa 0,0 l/m 0 min 2 min 0,0 UV-I 176 W/m 15,4 km/h (3 Bft)
23.05.2013 10:34 5,4 C 4,6 C 95 % 1007,5 hPa 0,0 l/m 0 min 2 min 0,0 UV-I 192 W/m 20,6 km/h (4 Bft)
23.05.2013 10:36 5,4 C 4,6 C 95 % 1007,4 hPa 0,0 l/m 0 min 2 min 0,0 UV-I 206 W/m 15,4 km/h (3 Bft)
23.05.2013 10:38 5,4 C 5,1 C 95 % 1007,4 hPa 0,0 l/m 0 min 2 min 0,5 UV-I 241 W/m 12,9 km/h (3 Bft)
23.05.2013 10:40 5,4 C 5,1 C 95 % 1007,4 hPa 0,0 l/m 0 min 0 min 0,5 UV-I 241 W/m 18,0 km/h (3 Bft)
23.05.2013 10:42 5,4 C 4,6 C 95 % 1007,4 hPa 0,0 l/m 0 min 0 min 0,5 UV-I 236 W/m 18,0 km/h (3 Bft)
23.05.2013 10:44 5,4 C 5,1 C 95 % 1007,4 hPa 0,0 l/m 0 min 0 min 0,5 UV-I 202 W/m 15,4 km/h (3 Bft)
23.05.2013 10:46 5,3 C 5,1 C 95 % 1007,5 hPa 0,0 l/m 0 min 0 min 0,0 UV-I 181 W/m 7,7 km/h (2 Bft)
23.05.2013 10:48 5,3 C 4,6 C 95 % 1007,6 hPa 0,0 l/m 0 min 0 min 0,0 UV-I 183 W/m 18,0 km/h (3 Bft)
23.05.2013 10:50 5,3 C 4,6 C 95 % 1007,5 hPa 0,0 l/m 0 min 0 min 0,0 UV-I 160 W/m 15,4 km/h (3 Bft)
23.05.2013 10:52 5,3 C 4,6 C 95 % 1007,6 hPa 0,0 l/m 0 min 0 min 0,0 UV-I 151 W/m 15,4 km/h (3 Bft)
23.05.2013 10:54 5,3 C 4,6 C 95 % 1007,6 hPa 0,0 l/m 0 min 0 min 0,0 UV-I 146 W/m 12,9 km/h (3 Bft)
23.05.2013 10:56 5,3 C 4,6 C 95 % 1007,6 hPa 0,0 l/m 0 min 0 min 0,0 UV-I 153 W/m 12,9 km/h (3 Bft)
23.05.2013 10:58 5,3 C 4,6 C 95 % 1007,6 hPa 0,0 l/m 0 min 0 min 0,0 UV-I 155 W/m 15,4 km/h (3 Bft)
23.05.2013 11:00 5,3 C 4,6 C 94 % 1007,6 hPa 0,0 l/m 0 min 0 min 0,0 UV-I 162 W/m 18,0 km/h (3 Bft)
23.05.2013 11:02 5,3 C 4,6 C 94 % 1007,6 hPa 0,0 l/m 0 min 0 min 0,0 UV-I 185 W/m 18,0 km/h (3 Bft)
23.05.2013 11:04 5,3 C 4,6 C 94 % 1007,6 hPa 0,0 l/m 0 min 0 min 0,0 UV-I 199 W/m 12,9 km/h (3 Bft)
23.05.2013 11:06 5,3 C 4,6 C 94 % 1007,6 hPa 0,0 l/m 0 min 0 min 0,5 UV-I 213 W/m 20,6 km/h (4 Bft)
23.05.2013 11:08 5,2 C 4,6 C 94 % 1007,6 hPa 0,0 l/m 0 min 0 min 0,5 UV-I 234 W/m 10,3 km/h (2 Bft)
23.05.2013 11:10 5,3 C 5,1 C 94 % 1007,6 hPa 0,0 l/m 0 min 0 min 0,6 UV-I 243 W/m 10,3 km/h (2 Bft)
23.05.2013 11:12 5,3 C 5,1 C 94 % 1007,6 hPa 0,0 l/m 0 min 0 min 0,6 UV-I 244 W/m 10,3 km/h (2 Bft)
23.05.2013 11:14 5,3 C 5,1 C 94 % 1007,6 hPa 0,0 l/m 0 min 0 min 0,6 UV-I 258 W/m 7,7 km/h (2 Bft)
23.05.2013 11:16 5,4 C 5,1 C 94 % 1007,6 hPa 0,0 l/m 0 min 0 min 0,6 UV-I 271 W/m 18,0 km/h (3 Bft)
23.05.2013 11:18 5,4 C 5,1 C 94 % 1007,5 hPa 0,0 l/m 0 min 0 min 0,5 UV-I 232 W/m 18,0 km/h (3 Bft)
23.05.2013 11:20 5,3 C 4,6 C 94 % 1007,6 hPa 0,0 l/m 0 min 2 min 0,0 UV-I 204 W/m 15,4 km/h (3 Bft)
23.05.2013 11:22 5,3 C 4,6 C 94 % 1007,6 hPa 0,0 l/m 0 min 0 min 0,5 UV-I 216 W/m 10,3 km/h (2 Bft)
23.05.2013 11:24 5,3 C 4,6 C 93 % 1007,4 hPa 0,0 l/m 0 min 0 min 0,6 UV-I 239 W/m 20,6 km/h (4 Bft)
23.05.2013 11:26 5,3 C 4,6 C 93 % 1007,4 hPa 0,0 l/m 0 min 0 min 0,9 UV-I 287 W/m 20,6 km/h (4 Bft)
23.05.2013 11:28 5,3 C 5,1 C 93 % 1007,3 hPa 0,0 l/m 0 min 0 min 0,9 UV-I 287 W/m 18,0 km/h (3 Bft)
23.05.2013 11:30 5,3 C 5,1 C 93 % 1007,4 hPa 0,0 l/m 0 min 2 min 0,8 UV-I 258 W/m 15,4 km/h (3 Bft)
23.05.2013 11:32 5,4 C 5,1 C 93 % 1007,3 hPa 0,0 l/m 0 min 0 min 0,8 UV-I 260 W/m 12,9 km/h (3 Bft)
23.05.2013 11:34 5,4 C 5,1 C 93 % 1007,3 hPa 0,0 l/m 0 min 0 min 0,9 UV-I 290 W/m 10,3 km/h (2 Bft)
23.05.2013 11:36 5,4 C 5,1 C 92 % 1007,4 hPa 0,0 l/m 0 min 0 min 0,9 UV-I 281 W/m 15,4 km/h (3 Bft)
23.05.2013 11:38 5,5 C 5,7 C 93 % 1007,4 hPa 0,0 l/m 0 min 0 min 0,7 UV-I 257 W/m 10,3 km/h (2 Bft)
23.05.2013 11:40 5,6 C 5,7 C 93 % 1007,5 hPa 0,0 l/m 0 min 0 min 0,5 UV-I 220 W/m 7,7 km/h (2 Bft)
23.05.2013 11:42 5,6 C 5,7 C 93 % 1007,4 hPa 0,0 l/m 0 min 0 min 0,5 UV-I 220 W/m 10,3 km/h (2 Bft)
23.05.2013 11:44 5,7 C 5,7 C 93 % 1007,4 hPa 0,0 l/m 0 min 0 min 0,5 UV-I 216 W/m 7,7 km/h (2 Bft)
23.05.2013 11:46 5,7 C 5,7 C 93 % 1007,4 hPa 0,0 l/m 0 min 0 min 0,6 UV-I 234 W/m 12,9 km/h (3 Bft)
23.05.2013 11:48 5,7 C 5,1 C 92 % 1007,4 hPa 0,0 l/m 0 min 0 min 0,6 UV-I 232 W/m 15,4 km/h (3 Bft)
23.05.2013 11:50 5,7 C 5,1 C 92 % 1007,5 hPa 0,0 l/m 0 min 0 min 0,6 UV-I 220 W/m 18,0 km/h (3 Bft)
23.05.2013 11:52 5,7 C 5,1 C 92 % 1007,4 hPa 0,0 l/m 0 min 0 min 0,0 UV-I 190 W/m 10,3 km/h (2 Bft)
23.05.2013 11:54 5,7 C 5,1 C 92 % 1007,4 hPa 0,0 l/m 0 min 0 min 0,0 UV-I 158 W/m 10,3 km/h (2 Bft)
23.05.2013 11:56 5,7 C 5,1 C 92 % 1007,4 hPa 0,0 l/m 0 min 0 min 0,0 UV-I 127 W/m 7,7 km/h (2 Bft)
23.05.2013 11:58 5,7 C 5,1 C 92 % 1007,5 hPa 0,0 l/m 0 min 0 min 0,0 UV-I 128 W/m 7,7 km/h (2 Bft)
23.05.2013 12:00 5,7 C 5,1 C 92 % 1007,6 hPa 0,0 l/m 0 min 0 min 0,0 UV-I 139 W/m 0,0 km/h (0 Bft)
23.05.2013 12:02 5,7 C 5,7 C 92 % 1007,6 hPa 0,0 l/m 0 min 0 min 0,0 UV-I 149 W/m 2,6 km/h (1 Bft)
23.05.2013 12:04 5,7 C 5,1 C 91 % 1007,6 hPa 0,0 l/m 0 min 0 min 0,0 UV-I 139 W/m 7,7 km/h (2 Bft)
23.05.2013 12:06 5,7 C 5,1 C 91 % 1007,6 hPa 0,0 l/m 0 min 0 min 0,0 UV-I 130 W/m 2,6 km/h (1 Bft)
23.05.2013 12:08 5,7 C 5,7 C 91 % 1007,5 hPa 0,0 l/m 0 min 0 min 0,0 UV-I 144 W/m 5,1 km/h (1 Bft)
23.05.2013 12:10 5,7 C 5,7 C 91 % 1007,5 hPa 0,0 l/m 0 min 0 min 0,0 UV-I 160 W/m 2,6 km/h (1 Bft)
23.05.2013 12:12 5,7 C 5,7 C 91 % 1007,5 hPa 0,0 l/m 0 min 0 min 0,0 UV-I 155 W/m 10,3 km/h (2 Bft)
23.05.2013 12:14 5,7 C 5,7 C 91 % 1007,6 hPa 0,0 l/m 0 min 0 min 0,0 UV-I 155 W/m 0,0 km/h (0 Bft)
23.05.2013 12:16 5,8 C 5,7 C 91 % 1007,5 hPa 0,0 l/m 0 min 0 min 0,0 UV-I 165 W/m 2,6 km/h (1 Bft)
23.05.2013 12:18 5,8 C 5,7 C 91 % 1007,5 hPa 0,0 l/m 0 min 0 min 0,0 UV-I 181 W/m 0,0 km/h (0 Bft)
23.05.2013 12:20 5,8 C 5,7 C 91 % 1007,5 hPa 0,0 l/m 0 min 0 min 0,0 UV-I 186 W/m 2,6 km/h (1 Bft)
23.05.2013 12:22 5,8 C 5,7 C 91 % 1007,5 hPa 0,0 l/m 0 min 0 min 0,0 UV-I 178 W/m 10,3 km/h (2 Bft)
23.05.2013 12:24 5,8 C 5,7 C 91 % 1007,5 hPa 0,0 l/m 0 min 0 min 0,0 UV-I 192 W/m 10,3 km/h (2 Bft)
23.05.2013 12:26 5,8 C 5,7 C 91 % 1007,5 hPa 0,0 l/m 0 min 0 min 0,5 UV-I 199 W/m 12,9 km/h (3 Bft)
23.05.2013 12:28 5,8 C 6,2 C 91 % 1007,5 hPa 0,0 l/m 0 min 0 min 0,6 UV-I 211 W/m 10,3 km/h (2 Bft)
23.05.2013 12:30 5,9 C 6,2 C 91 % 1007,4 hPa 0,0 l/m 0 min 0 min 0,7 UV-I 239 W/m 5,1 km/h (1 Bft)
23.05.2013 12:32 5,9 C 6,2 C 90 % 1007,4 hPa 0,0 l/m 0 min 0 min 1,2 UV-I 306 W/m 12,9 km/h (3 Bft)
23.05.2013 12:34 5,9 C 6,8 C 90 % 1007,4 hPa 0,0 l/m 0 min 0 min 1,3 UV-I 329 W/m 7,7 km/h (2 Bft)
23.05.2013 12:36 6,0 C 6,8 C 90 % 1007,4 hPa 0,0 l/m 0 min 0 min 1,4 UV-I 360 W/m 7,7 km/h (2 Bft)
23.05.2013 12:38 6,0 C 7,3 C 90 % 1007,3 hPa 0,0 l/m 0 min 0 min 1,6 UV-I 387 W/m 0,0 km/h (0 Bft)
23.05.2013 12:40 6,1 C 7,3 C 89 % 1007,3 hPa 0,0 l/m 0 min 0 min 1,8 UV-I 410 W/m 0,0 km/h (0 Bft)
23.05.2013 12:42 6,2 C 7,3 C 89 % 1007,2 hPa 0,0 l/m 0 min 0 min 1,9 UV-I 445 W/m 5,1 km/h (1 Bft)
23.05.2013 12:44 6,4 C 7,9 C 89 % 1007,3 hPa 0,0 l/m 0 min 0 min 1,9 UV-I 446 W/m 0,0 km/h (0 Bft)
23.05.2013 12:46 6,6 C 8,4 C 89 % 1007,2 hPa 0,0 l/m 2 min 0 min 2,1 UV-I 478 W/m 10,3 km/h (2 Bft)
23.05.2013 12:48 6,7 C 8,4 C 89 % 1007,2 hPa 0,0 l/m 2 min 0 min 2,0 UV-I 480 W/m 5,1 km/h (1 Bft)
23.05.2013 12:50 6,8 C 8,4 C 88 % 1007,2 hPa 0,0 l/m 0 min 0 min 1,8 UV-I 438 W/m 7,7 km/h (2 Bft)
23.05.2013 12:52 7,0 C 9,0 C 89 % 1007,2 hPa 0,0 l/m 0 min 0 min 1,6 UV-I 404 W/m 10,3 km/h (2 Bft)
23.05.2013 12:54 6,9 C 8,4 C 88 % 1007,2 hPa 0,0 l/m 0 min 0 min 1,2 UV-I 327 W/m 12,9 km/h (3 Bft)
23.05.2013 12:56 7,1 C 8,4 C 88 % 1007,2 hPa 0,0 l/m 0 min 0 min 1,1 UV-I 306 W/m 0,0 km/h (0 Bft)
23.05.2013 12:58 7,1 C 8,4 C 88 % 1007,1 hPa 0,0 l/m 0 min 0 min 0,9 UV-I 292 W/m 0,0 km/h (0 Bft)
23.05.2013 13:00 7,1 C 7,9 C 88 % 1007,1 hPa 0,0 l/m 0 min 0 min 0,7 UV-I 250 W/m 7,7 km/h (2 Bft)
23.05.2013 13:02 6,9 C 7,3 C 87 % 1007,1 hPa 0,0 l/m 0 min 0 min 0,7 UV-I 248 W/m 10,3 km/h (2 Bft)
23.05.2013 13:04 6,8 C 7,3 C 86 % 1007,2 hPa 0,0 l/m 0 min 0 min 0,7 UV-I 234 W/m 10,3 km/h (2 Bft)
23.05.2013 13:06 6,7 C 7,3 C 86 % 1007,1 hPa 0,0 l/m 0 min 0 min 0,7 UV-I 241 W/m 10,3 km/h (2 Bft)
23.05.2013 13:08 6,7 C 7,3 C 87 % 1007,1 hPa 0,0 l/m 0 min 0 min 0,7 UV-I 241 W/m 12,9 km/h (3 Bft)
23.05.2013 13:10 6,7 C 7,3 C 86 % 1007,2 hPa 0,0 l/m 0 min 0 min 0,6 UV-I 218 W/m 12,9 km/h (3 Bft)
23.05.2013 13:12 6,7 C 7,3 C 86 % 1007,2 hPa 0,0 l/m 0 min 0 min 0,0 UV-I 179 W/m 0,0 km/h (0 Bft)
23.05.2013 13:14 6,8 C 7,3 C 87 % 1007,1 hPa 0,0 l/m 0 min 0 min 0,0 UV-I 163 W/m 7,7 km/h (2 Bft)
23.05.2013 13:16 6,8 C 6,8 C 87 % 1007,1 hPa 0,0 l/m 0 min 0 min 0,0 UV-I 135 W/m 5,1 km/h (1 Bft)
23.05.2013 13:18 6,8 C 6,8 C 87 % 1007,2 hPa 0,0 l/m 0 min 0 min 0,0 UV-I 128 W/m 10,3 km/h (2 Bft)
23.05.2013 13:20 6,8 C 6,8 C 87 % 1007,2 hPa 0,0 l/m 0 min 0 min 0,0 UV-I 125 W/m 10,3 km/h (2 Bft)
23.05.2013 13:22 6,8 C 6,8 C 87 % 1007,2 hPa 0,0 l/m 0 min 0 min 0,0 UV-I 121 W/m 2,6 km/h (1 Bft)
23.05.2013 13:24 6,8 C 6,8 C 87 % 1007,3 hPa 0,0 l/m 0 min 0 min 0,0 UV-I 125 W/m 10,3 km/h (2 Bft)
23.05.2013 13:26 6,8 C 6,8 C 87 % 1007,2 hPa 0,0 l/m 0 min 2 min 0,0 UV-I 134 W/m 0,0 km/h (0 Bft)
23.05.2013 13:28 6,8 C 6,8 C 87 % 1007,2 hPa 0,0 l/m 0 min 0 min 0,0 UV-I 149 W/m 0,0 km/h (0 Bft)
23.05.2013 13:30 6,8 C 6,8 C 87 % 1007,3 hPa 0,0 l/m 0 min 0 min 0,0 UV-I 165 W/m 0,0 km/h (0 Bft)
23.05.2013 13:32 6,9 C 6,8 C 87 % 1007,3 hPa 0,0 l/m 0 min 0 min 0,0 UV-I 160 W/m 2,6 km/h (1 Bft)
23.05.2013 13:34 6,8 C 6,8 C 87 % 1007,3 hPa 0,0 l/m 0 min 2 min 0,0 UV-I 153 W/m 0,0 km/h (0 Bft)
23.05.2013 13:36 6,9 C 6,8 C 87 % 1007,3 hPa 0,0 l/m 0 min 0 min 0,5 UV-I 176 W/m 0,0 km/h (0 Bft)
23.05.2013 13:38 6,9 C 6,8 C 87 % 1007,3 hPa 0,0 l/m 0 min 0 min 0,6 UV-I 197 W/m 7,7 km/h (2 Bft)
23.05.2013 13:40 6,9 C 6,8 C 87 % 1007,3 hPa 0,0 l/m 0 min 0 min 0,6 UV-I 199 W/m 2,6 km/h (1 Bft)
23.05.2013 13:42 6,9 C 7,3 C 87 % 1007,3 hPa 0,0 l/m 0 min 0 min 1,1 UV-I 229 W/m 0,0 km/h (0 Bft)
23.05.2013 13:44 6,9 C 7,3 C 87 % 1007,4 hPa 0,0 l/m 0 min 0 min 1,4 UV-I 283 W/m 2,6 km/h (1 Bft)
23.05.2013 13:46 6,9 C 7,9 C 86 % 1007,4 hPa 0,0 l/m 0 min 0 min 1,4 UV-I 313 W/m 0,0 km/h (0 Bft)
23.05.2013 13:48 7,0 C 7,9 C 86 % 1007,4 hPa 0,0 l/m 0 min 0 min 1,2 UV-I 295 W/m 0,0 km/h (0 Bft)
23.05.2013 13:50 7,0 C 8,4 C 86 % 1007,4 hPa 0,0 l/m 0 min 0 min 1,0 UV-I 274 W/m 7,7 km/h (2 Bft)
23.05.2013 13:52 7,1 C 8,4 C 86 % 1007,3 hPa 0,0 l/m 0 min 0 min 0,7 UV-I 209 W/m 0,0 km/h (0 Bft)
23.05.2013 13:54 7,2 C 7,9 C 86 % 1007,3 hPa 0,0 l/m 0 min 0 min 0,0 UV-I 165 W/m 0,0 km/h (0 Bft)
23.05.2013 13:56 7,2 C 7,9 C 86 % 1007,3 hPa 0,0 l/m 0 min 2 min 0,0 UV-I 116 W/m 0,0 km/h (0 Bft)
23.05.2013 13:58 7,2 C 7,3 C 86 % 1007,4 hPa 0,0 l/m 0 min 2 min 0,0 UV-I 72 W/m 0,0 km/h (0 Bft)
23.05.2013 14:00 7,2 C 6,8 C 87 % 1007,5 hPa 0,0 l/m 0 min 2 min 0,0 UV-I 56 W/m 2,6 km/h (1 Bft)
23.05.2013 14:02 7,3 C 6,2 C 87 % 1007,5 hPa 0,0 l/m 0 min 2 min 0,0 UV-I 51 W/m 0,0 km/h (0 Bft)
23.05.2013 14:04 7,3 C 6,2 C 87 % 1007,5 hPa 0,0 l/m 0 min 2 min 0,0 UV-I 49 W/m 5,1 km/h (1 Bft)
23.05.2013 14:06 7,2 C 6,2 C 87 % 1007,6 hPa 0,0 l/m 0 min 2 min 0,0 UV-I 58 W/m 10,3 km/h (2 Bft)
23.05.2013 14:08 7,2 C 6,2 C 87 % 1007,6 hPa 0,0 l/m 0 min 2 min 0,0 UV-I 60 W/m 5,1 km/h (1 Bft)
23.05.2013 14:10 7,2 C 6,2 C 87 % 1007,6 hPa 0,0 l/m 0 min 2 min 0,0 UV-I 70 W/m 7,7 km/h (2 Bft)
23.05.2013 14:12 7,2 C 5,7 C 88 % 1007,6 hPa 0,0 l/m 0 min 2 min 0,0 UV-I 95 W/m 18,0 km/h (3 Bft)
23.05.2013 14:14 7,1 C 5,7 C 88 % 1007,6 hPa 0,0 l/m 0 min 2 min 0,0 UV-I 125 W/m 5,1 km/h (1 Bft)
23.05.2013 14:16 7,1 C 5,7 C 88 % 1007,6 hPa 0,0 l/m 0 min 2 min 0,0 UV-I 142 W/m 0,0 km/h (0 Bft)
23.05.2013 14:18 7,1 C 6,2 C 88 % 1007,6 hPa 0,0 l/m 0 min 2 min 0,0 UV-I 137 W/m 0,0 km/h (0 Bft)
23.05.2013 14:20 7,1 C 6,2 C 89 % 1007,6 hPa 0,0 l/m 0 min 2 min 0,0 UV-I 151 W/m 0,0 km/h (0 Bft)
23.05.2013 14:22 7,1 C 6,2 C 89 % 1007,6 hPa 0,0 l/m 0 min 0 min 0,6 UV-I 192 W/m 0,0 km/h (0 Bft)
23.05.2013 14:24 7,0 C 6,2 C 89 % 1007,6 hPa 0,0 l/m 0 min 0 min 0,5 UV-I 186 W/m 0,0 km/h (0 Bft)
23.05.2013 14:26 7,0 C 6,2 C 89 % 1007,6 hPa 0,0 l/m 0 min 0 min 0,0 UV-I 176 W/m 15,4 km/h (3 Bft)
23.05.2013 14:28 7,0 C 6,2 C 89 % 1007,7 hPa 0,0 l/m 0 min 0 min 0,5 UV-I 186 W/m 12,9 km/h (3 Bft)
23.05.2013 14:30 6,9 C 6,2 C 89 % 1007,7 hPa 0,0 l/m 0 min 2 min 0,0 UV-I 167 W/m 12,9 km/h (3 Bft)
23.05.2013 14:32 6,9 C 6,2 C 89 % 1007,7 hPa 0,0 l/m 0 min 0 min 0,0 UV-I 137 W/m 0,0 km/h (0 Bft)
23.05.2013 14:34 6,9 C 6,2 C 89 % 1007,6 hPa 0,0 l/m 0 min 0 min 0,0 UV-I 113 W/m 0,0 km/h (0 Bft)
23.05.2013 14:36 6,9 C 5,7 C 89 % 1007,6 hPa 0,0 l/m 0 min 2 min 0,0 UV-I 107 W/m 7,7 km/h (2 Bft)
23.05.2013 14:38 6,8 C 5,7 C 89 % 1007,6 hPa 0,0 l/m 0 min 2 min 0,0 UV-I 107 W/m 7,7 km/h (2 Bft)
23.05.2013 14:40 6,8 C 5,7 C 89 % 1007,6 hPa 0,0 l/m 0 min 2 min 0,0 UV-I 105 W/m 0,0 km/h (0 Bft)
23.05.2013 14:42 6,8 C 5,7 C 89 % 1007,6 hPa 0,0 l/m 0 min 2 min 0,0 UV-I 107 W/m 7,7 km/h (2 Bft)
23.05.2013 14:44 6,8 C 6,2 C 89 % 1007,6 hPa 0,0 l/m 0 min 2 min 0,0 UV-I 120 W/m 2,6 km/h (1 Bft)
23.05.2013 14:46 6,8 C 6,2 C 89 % 1007,6 hPa 0,0 l/m 0 min 2 min 0,0 UV-I 130 W/m 5,1 km/h (1 Bft)
23.05.2013 14:48 6,8 C 6,2 C 90 % 1007,6 hPa 0,0 l/m 0 min 2 min 0,0 UV-I 139 W/m 0,0 km/h (0 Bft)
23.05.2013 14:50 6,8 C 6,2 C 90 % 1007,6 hPa 0,0 l/m 0 min 2 min 0,0 UV-I 172 W/m 5,1 km/h (1 Bft)
23.05.2013 14:52 6,8 C 6,2 C 90 % 1007,6 hPa 0,0 l/m 0 min 2 min 0,5 UV-I 197 W/m 2,6 km/h (1 Bft)
23.05.2013 14:54 6,8 C 6,2 C 90 % 1007,6 hPa 0,0 l/m 0 min 2 min 0,7 UV-I 223 W/m 5,1 km/h (1 Bft)
23.05.2013 14:56 6,8 C 6,8 C 90 % 1007,6 hPa 0,0 l/m 0 min 2 min 0,8 UV-I 255 W/m 0,0 km/h (0 Bft)
23.05.2013 14:58 6,8 C 6,8 C 90 % 1007,6 hPa 0,0 l/m 0 min 2 min 1,0 UV-I 265 W/m 0,0 km/h (0 Bft)
23.05.2013 15:00 6,9 C 6,8 C 90 % 1007,6 hPa 0,0 l/m 0 min 2 min 1,0 UV-I 271 W/m 7,7 km/h (2 Bft)
23.05.2013 15:02 6,9 C 7,3 C 90 % 1007,6 hPa 0,0 l/m 0 min 0 min 1,1 UV-I 283 W/m 5,1 km/h (1 Bft)
23.05.2013 15:04 6,9 C 7,3 C 90 % 1007,6 hPa 0,0 l/m 0 min 0 min 1,3 UV-I 297 W/m 5,1 km/h (1 Bft)
23.05.2013 15:06 7,0 C 7,3 C 90 % 1007,5 hPa 0,0 l/m 0 min 0 min 1,4 UV-I 320 W/m 5,1 km/h (1 Bft)
23.05.2013 15:08 7,1 C 7,9 C 90 % 1007,5 hPa 0,0 l/m 0 min 0 min 1,5 UV-I 364 W/m 7,7 km/h (2 Bft)
23.05.2013 15:10 7,3 C 8,4 C 91 % 1007,5 hPa 0,0 l/m 0 min 0 min 1,6 UV-I 390 W/m 0,0 km/h (0 Bft)
23.05.2013 15:12 7,3 C 8,4 C 91 % 1007,5 hPa 0,0 l/m 0 min 0 min 1,6 UV-I 388 W/m 2,6 km/h (1 Bft)
23.05.2013 15:14 7,2 C 7,9 C 89 % 1007,5 hPa 0,0 l/m 0 min 0 min 1,4 UV-I 353 W/m 7,7 km/h (2 Bft)
23.05.2013 15:16 7,1 C 8,4 C 89 % 1007,5 hPa 0,0 l/m 0 min 2 min 1,4 UV-I 348 W/m 12,9 km/h (3 Bft)
23.05.2013 15:18 7,1 C 7,9 C 88 % 1007,4 hPa 0,0 l/m 0 min 0 min 1,5 UV-I 413 W/m 2,6 km/h (1 Bft)
23.05.2013 15:20 7,2 C 8,4 C 88 % 1007,4 hPa 0,0 l/m 0 min 2 min 1,2 UV-I 330 W/m 0,0 km/h (0 Bft)
23.05.2013 15:22 7,3 C 8,4 C 89 % 1007,5 hPa 0,0 l/m 0 min 2 min 1,4 UV-I 373 W/m 7,7 km/h (2 Bft)
23.05.2013 15:24 7,4 C 9,0 C 89 % 1007,4 hPa 0,0 l/m 2 min 0 min 1,6 UV-I 434 W/m 0,0 km/h (0 Bft)
23.05.2013 15:26 7,5 C 9,0 C 89 % 1007,4 hPa 0,0 l/m 0 min 0 min 1,7 UV-I 427 W/m 5,1 km/h (1 Bft)
23.05.2013 15:28 7,8 C 9,6 C 89 % 1007,4 hPa 0,0 l/m 2 min 0 min 3,0 UV-I 427 W/m 0,0 km/h (0 Bft)
23.05.2013 15:30 8,2 C 9,6 C 89 % 1007,3 hPa 0,0 l/m 2 min 0 min 3,3 UV-I 863 W/m 0,0 km/h (0 Bft)
23.05.2013 15:32 8,6 C 10,1 C 89 % 1007,3 hPa 0,0 l/m 2 min 0 min 3,5 UV-I 905 W/m 0,0 km/h (0 Bft)
23.05.2013 15:34 8,8 C 10,1 C 88 % 1007,4 hPa 0,0 l/m 2 min 0 min 3,4 UV-I 863 W/m 10,3 km/h (2 Bft)
23.05.2013 15:36 8,7 C 9,6 C 83 % 1007,3 hPa 0,0 l/m 2 min 0 min 3,4 UV-I 835 W/m 10,3 km/h (2 Bft)
23.05.2013 15:38 9,2 C 10,7 C 86 % 1007,3 hPa 0,0 l/m 2 min 0 min 3,3 UV-I 837 W/m 7,7 km/h (2 Bft)
23.05.2013 15:40 9,4 C 10,7 C 85 % 1007,3 hPa 0,0 l/m 2 min 0 min 3,3 UV-I 853 W/m 2,6 km/h (1 Bft)
23.05.2013 15:42 9,7 C 11,2 C 84 % 1007,2 hPa 0,0 l/m 2 min 0 min 3,2 UV-I 893 W/m 12,9 km/h (3 Bft)
23.05.2013 15:44 9,9 C 11,2 C 83 % 1007,2 hPa 0,0 l/m 2 min 0 min 2,6 UV-I 893 W/m 15,4 km/h (3 Bft)
23.05.2013 15:46 9,5 C 10,7 C 79 % 1007,1 hPa 0,0 l/m 2 min 0 min 2,1 UV-I 893 W/m 12,9 km/h (3 Bft)
23.05.2013 15:48 9,2 C 10,1 C 80 % 1007,1 hPa 0,0 l/m 2 min 0 min 1,4 UV-I 893 W/m 10,3 km/h (2 Bft)
23.05.2013 15:50 8,9 C 9,6 C 80 % 1007,1 hPa 0,0 l/m 0 min 0 min 0,8 UV-I 306 W/m 10,3 km/h (2 Bft)
23.05.2013 15:52 8,9 C 9,6 C 81 % 1007,3 hPa 0,0 l/m 0 min 0 min 0,5 UV-I 125 W/m 10,3 km/h (2 Bft)
23.05.2013 15:54 8,8 C 8,4 C 80 % 1007,2 hPa 0,0 l/m 0 min 0 min 0,0 UV-I 104 W/m 12,9 km/h (3 Bft)
23.05.2013 15:56 8,7 C 8,4 C 80 % 1007,2 hPa 0,0 l/m 0 min 0 min 0,0 UV-I 86 W/m 12,9 km/h (3 Bft)
23.05.2013 15:58 8,6 C 7,9 C 80 % 1007,2 hPa 0,0 l/m 0 min 0 min 0,0 UV-I 69 W/m 7,7 km/h (2 Bft)
23.05.2013 16:00 8,6 C 7,9 C 81 % 1007,2 hPa 0,0 l/m 0 min 2 min 0,0 UV-I 56 W/m 2,6 km/h (1 Bft)
23.05.2013 16:02 8,6 C 7,9 C 82 % 1007,3 hPa 0,0 l/m 0 min 2 min 0,0 UV-I 70 W/m 20,6 km/h (4 Bft)
23.05.2013 16:04 8,5 C 7,9 C 83 % 1007,3 hPa 0,0 l/m 0 min 2 min 0,0 UV-I 105 W/m 18,0 km/h (3 Bft)
23.05.2013 16:06 8,3 C 7,3 C 83 % 1007,3 hPa 0,0 l/m 0 min 2 min 0,0 UV-I 148 W/m 5,1 km/h (1 Bft)
23.05.2013 16:08 8,1 C 7,3 C 84 % 1007,3 hPa 0,0 l/m 0 min 2 min 0,6 UV-I 163 W/m 0,0 km/h (0 Bft)
23.05.2013 16:10 7,9 C 7,3 C 86 % 1007,3 hPa 0,0 l/m 0 min 2 min 0,7 UV-I 183 W/m 0,0 km/h (0 Bft)
23.05.2013 16:12 7,9 C 7,3 C 87 % 1007,3 hPa 0,0 l/m 0 min 0 min 0,9 UV-I 248 W/m 5,1 km/h (1 Bft)
23.05.2013 16:14 7,8 C 7,9 C 88 % 1007,3 hPa 0,0 l/m 0 min 0 min 1,2 UV-I 276 W/m 7,7 km/h (2 Bft)
23.05.2013 16:16 7,9 C 7,9 C 89 % 1007,3 hPa 0,0 l/m 0 min 0 min 1,3 UV-I 281 W/m 0,0 km/h (0 Bft)
23.05.2013 16:18 7,8 C 7,9 C 89 % 1007,3 hPa 0,0 l/m 0 min 0 min 1,4 UV-I 352 W/m 10,3 km/h (2 Bft)
23.05.2013 16:20 7,9 C 8,4 C 90 % 1007,2 hPa 0,0 l/m 2 min 0 min 2,1 UV-I 677 W/m 10,3 km/h (2 Bft)
23.05.2013 16:22 8,1 C 8,4 C 89 % 1007,2 hPa 0,0 l/m 2 min 0 min 0,7 UV-I 677 W/m 10,3 km/h (2 Bft)
23.05.2013 16:24 8,1 C 8,4 C 89 % 1007,2 hPa 0,0 l/m 0 min 0 min 0,0 UV-I 128 W/m 10,3 km/h (2 Bft)
23.05.2013 16:26 8,1 C 7,9 C 88 % 1007,3 hPa 0,0 l/m 0 min 0 min 0,0 UV-I 74 W/m 0,0 km/h (0 Bft)
23.05.2013 16:28 8,0 C 7,9 C 87 % 1007,4 hPa 0,0 l/m 0 min 0 min 0,0 UV-I 54 W/m 0,0 km/h (0 Bft)
23.05.2013 16:30 7,9 C 7,3 C 87 % 1007,5 hPa 0,0 l/m 0 min 0 min 0,0 UV-I 83 W/m 15,4 km/h (3 Bft)
23.05.2013 16:32 7,9 C 7,3 C 87 % 1007,4 hPa 0,0 l/m 0 min 0 min 0,0 UV-I 123 W/m 20,6 km/h (4 Bft)
23.05.2013 16:34 7,8 C 7,3 C 86 % 1007,6 hPa 0,0 l/m 0 min 0 min 0,0 UV-I 188 W/m 15,4 km/h (3 Bft)
23.05.2013 16:36 7,7 C 7,9 C 86 % 1007,6 hPa 0,0 l/m 0 min 0 min 1,8 UV-I 236 W/m 15,4 km/h (3 Bft)
23.05.2013 16:38 7,8 C 8,4 C 85 % 1007,5 hPa 0,0 l/m 2 min 0 min 1,1 UV-I 497 W/m 20,6 km/h (4 Bft)
23.05.2013 16:40 8,0 C 9,0 C 85 % 1007,4 hPa 0,0 l/m 2 min 0 min 1,8 UV-I 475 W/m 18,0 km/h (3 Bft)
23.05.2013 16:42 8,2 C 9,6 C 83 % 1007,4 hPa 0,0 l/m 2 min 0 min 2,3 UV-I 926 W/m 23,2 km/h (4 Bft)
23.05.2013 16:44 8,5 C 9,6 C 82 % 1007,4 hPa 0,0 l/m 0 min 0 min 0,9 UV-I 311 W/m 25,7 km/h (4 Bft)
23.05.2013 16:46 8,6 C 9,6 C 81 % 1007,4 hPa 0,0 l/m 0 min 0 min 0,7 UV-I 271 W/m 23,2 km/h (4 Bft)
23.05.2013 16:48 8,7 C 9,0 C 80 % 1007,5 hPa 0,0 l/m 0 min 0 min 0,0 UV-I 193 W/m 20,6 km/h (4 Bft)
23.05.2013 16:50 8,6 C 8,4 C 79 % 1007,5 hPa 0,0 l/m 0 min 0 min 0,0 UV-I 213 W/m 23,2 km/h (4 Bft)
23.05.2013 16:52 8,3 C 8,4 C 78 % 1007,5 hPa 0,0 l/m 0 min 0 min 0,0 UV-I 243 W/m 18,0 km/h (3 Bft)
23.05.2013 16:54 8,3 C 8,4 C 78 % 1007,6 hPa 0,0 l/m 0 min 0 min 0,6 UV-I 279 W/m 15,4 km/h (3 Bft)
23.05.2013 16:56 8,2 C 8,4 C 79 % 1007,6 hPa 0,0 l/m 0 min 0 min 0,5 UV-I 244 W/m 18,0 km/h (3 Bft)
23.05.2013 16:58 8,2 C 8,4 C 79 % 1007,5 hPa 0,0 l/m 0 min 0 min 0,5 UV-I 214 W/m 23,2 km/h (4 Bft)
23.05.2013 17:00 8,2 C 8,4 C 78 % 1007,6 hPa 0,0 l/m 0 min 0 min 0,7 UV-I 236 W/m 23,2 km/h (4 Bft)
23.05.2013 17:02 8,2 C 8,4 C 79 % 1007,6 hPa 0,0 l/m 0 min 0 min 1,5 UV-I 236 W/m 10,3 km/h (2 Bft)
23.05.2013 17:04 8,4 C 9,0 C 79 % 1007,6 hPa 0,0 l/m 2 min 0 min 1,2 UV-I 777 W/m 18,0 km/h (3 Bft)
23.05.2013 17:06 8,6 C 9,0 C 78 % 1007,6 hPa 0,0 l/m 2 min 0 min 1,2 UV-I 784 W/m 18,0 km/h (3 Bft)
23.05.2013 17:08 8,7 C 9,0 C 79 % 1007,7 hPa 0,0 l/m 2 min 0 min 1,3 UV-I 696 W/m 20,6 km/h (4 Bft)
23.05.2013 17:10 8,8 C 9,0 C 78 % 1007,7 hPa 0,0 l/m 2 min 0 min 1,2 UV-I 647 W/m 20,6 km/h (4 Bft)
23.05.2013 17:12 8,8 C 9,0 C 77 % 1007,7 hPa 0,0 l/m 0 min 0 min 0,8 UV-I 258 W/m 20,6 km/h (4 Bft)
23.05.2013 17:14 8,7 C 8,4 C 78 % 1007,6 hPa 0,0 l/m 0 min 0 min 0,6 UV-I 243 W/m 28,3 km/h (4 Bft)
23.05.2013 17:16 8,6 C 8,4 C 77 % 1007,6 hPa 0,0 l/m 0 min 0 min 0,5 UV-I 206 W/m 18,0 km/h (3 Bft)
23.05.2013 17:18 8,5 C 8,4 C 78 % 1007,6 hPa 0,0 l/m 0 min 0 min 0,8 UV-I 244 W/m 15,4 km/h (3 Bft)
23.05.2013 17:20 8,4 C 9,0 C 79 % 1007,6 hPa 0,0 l/m 0 min 0 min 0,6 UV-I 281 W/m 5,1 km/h (1 Bft)
23.05.2013 17:22 8,5 C 9,0 C 79 % 1007,6 hPa 0,0 l/m 0 min 0 min 0,0 UV-I 204 W/m 15,4 km/h (3 Bft)
23.05.2013 17:24 8,6 C 9,0 C 79 % 1007,6 hPa 0,0 l/m 0 min 0 min 0,0 UV-I 241 W/m 15,4 km/h (3 Bft)
23.05.2013 17:26 8,6 C 8,4 C 78 % 1007,6 hPa 0,0 l/m 2 min 0 min 0,5 UV-I 364 W/m 15,4 km/h (3 Bft)
23.05.2013 17:30 8,6 C 8,4 C 78 % 1007,6 hPa 0,0 l/m 0 min 0 min 0,0 UV-I 190 W/m 20,6 km/h (4 Bft)
23.05.2013 17:32 8,6 C 8,4 C 77 % 1007,6 hPa 0,0 l/m 0 min 0 min 0,5 UV-I 160 W/m 20,6 km/h (4 Bft)
23.05.2013 17:34 8,6 C 8,4 C 77 % 1007,6 hPa 0,0 l/m 0 min 0 min 0,0 UV-I 172 W/m 15,4 km/h (3 Bft)
23.05.2013 17:36 8,6 C 8,4 C 78 % 1007,6 hPa 0,0 l/m 0 min 0 min 0,0 UV-I 149 W/m 18,0 km/h (3 Bft)
23.05.2013 17:38 8,6 C 8,4 C 77 % 1007,7 hPa 0,0 l/m 0 min 0 min 0,0 UV-I 146 W/m 18,0 km/h (3 Bft)
23.05.2013 17:40 8,5 C 8,4 C 77 % 1007,6 hPa 0,0 l/m 0 min 0 min 0,0 UV-I 163 W/m 15,4 km/h (3 Bft)
23.05.2013 17:42 8,4 C 7,9 C 77 % 1007,6 hPa 0,0 l/m 0 min 0 min 0,0 UV-I 206 W/m 28,3 km/h (4 Bft)
23.05.2013 17:44 8,3 C 8,4 C 77 % 1007,6 hPa 0,0 l/m 0 min 0 min 0,9 UV-I 267 W/m 12,9 km/h (3 Bft)
23.05.2013 17:46 8,4 C 8,4 C 78 % 1007,6 hPa 0,0 l/m 0 min 0 min 0,0 UV-I 200 W/m 20,6 km/h (4 Bft)
23.05.2013 17:48 8,4 C 8,4 C 77 % 1007,5 hPa 0,0 l/m 0 min 0 min 0,0 UV-I 185 W/m 18,0 km/h (3 Bft)
23.05.2013 17:50 8,4 C 8,4 C 77 % 1007,6 hPa 0,0 l/m 0 min 0 min 0,0 UV-I 127 W/m 15,4 km/h (3 Bft)
23.05.2013 17:52 8,4 C 8,4 C 77 % 1007,6 hPa 0,0 l/m 0 min 0 min 0,0 UV-I 109 W/m 12,9 km/h (3 Bft)
23.05.2013 17:54 8,4 C 7,9 C 77 % 1007,6 hPa 0,0 l/m 0 min 0 min 0,0 UV-I 118 W/m 18,0 km/h (3 Bft)
23.05.2013 17:56 8,4 C 8,4 C 77 % 1007,6 hPa 0,0 l/m 0 min 0 min 0,0 UV-I 156 W/m 12,9 km/h (3 Bft)
23.05.2013 17:58 8,4 C 8,4 C 77 % 1007,6 hPa 0,0 l/m 0 min 0 min 0,0 UV-I 146 W/m 15,4 km/h (3 Bft)
23.05.2013 18:00 8,4 C 7,9 C 77 % 1007,6 hPa 0,0 l/m 0 min 0 min 0,0 UV-I 107 W/m 12,9 km/h (3 Bft)
23.05.2013 18:02 8,3 C 7,9 C 78 % 1007,6 hPa 0,0 l/m 0 min 0 min 0,0 UV-I 76 W/m 7,7 km/h (2 Bft)
23.05.2013 18:04 8,3 C 7,9 C 78 % 1007,6 hPa 0,0 l/m 0 min 0 min 0,0 UV-I 49 W/m 15,4 km/h (3 Bft)
23.05.2013 18:06 8,2 C 7,3 C 78 % 1007,7 hPa 0,0 l/m 0 min 0 min 0,0 UV-I 37 W/m 18,0 km/h (3 Bft)
23.05.2013 18:08 8,2 C 7,3 C 79 % 1007,7 hPa 0,0 l/m 0 min 0 min 0,0 UV-I 30 W/m 12,9 km/h (3 Bft)
23.05.2013 18:10 8,1 C 7,3 C 79 % 1007,7 hPa 0,0 l/m 0 min 0 min 0,0 UV-I 26 W/m 15,4 km/h (3 Bft)
23.05.2013 18:12 8,1 C 6,8 C 79 % 1007,8 hPa 0,0 l/m 0 min 2 min 0,0 UV-I 26 W/m 12,9 km/h (3 Bft)
23.05.2013 18:14 8,0 C 6,8 C 80 % 1007,8 hPa 0,0 l/m 0 min 0 min 0,0 UV-I 28 W/m 7,7 km/h (2 Bft)
23.05.2013 18:16 7,9 C 6,8 C 81 % 1007,8 hPa 0,0 l/m 0 min 2 min 0,0 UV-I 35 W/m 7,7 km/h (2 Bft)
23.05.2013 18:18 7,8 C 6,8 C 81 % 1007,8 hPa 0,0 l/m 0 min 2 min 0,0 UV-I 44 W/m 10,3 km/h (2 Bft)
23.05.2013 18:20 7,8 C 6,8 C 81 % 1007,8 hPa 0,0 l/m 0 min 2 min 0,0 UV-I 58 W/m 10,3 km/h (2 Bft)
23.05.2013 18:22 7,8 C 6,8 C 82 % 1007,7 hPa 0,0 l/m 0 min 0 min 0,0 UV-I 88 W/m 10,3 km/h (2 Bft)
23.05.2013 18:24 7,7 C 6,8 C 82 % 1007,8 hPa 0,0 l/m 0 min 0 min 0,0 UV-I 102 W/m 15,4 km/h (3 Bft)
23.05.2013 18:26 7,7 C 6,8 C 82 % 1007,8 hPa 0,0 l/m 0 min 0 min 0,0 UV-I 105 W/m 2,6 km/h (1 Bft)
23.05.2013 18:28 7,7 C 7,3 C 82 % 1007,8 hPa 0,0 l/m 0 min 0 min 0,0 UV-I 88 W/m 15,4 km/h (3 Bft)
23.05.2013 18:30 7,8 C 7,3 C 82 % 1007,7 hPa 0,0 l/m 0 min 0 min 0,0 UV-I 83 W/m 10,3 km/h (2 Bft)
23.05.2013 18:32 7,8 C 7,3 C 82 % 1007,7 hPa 0,0 l/m 0 min 0 min 0,0 UV-I 74 W/m 0,0 km/h (0 Bft)
23.05.2013 18:34 7,8 C 7,3 C 82 % 1007,7 hPa 0,0 l/m 0 min 0 min 0,0 UV-I 60 W/m 10,3 km/h (2 Bft)
23.05.2013 18:36 7,8 C 7,3 C 83 % 1007,8 hPa 0,0 l/m 0 min 0 min 0,0 UV-I 54 W/m 7,7 km/h (2 Bft)
23.05.2013 18:38 7,8 C 7,3 C 82 % 1007,8 hPa 0,0 l/m 0 min 2 min 0,0 UV-I 51 W/m 10,3 km/h (2 Bft)
23.05.2013 18:40 7,8 C 6,8 C 83 % 1007,8 hPa 0,0 l/m 0 min 2 min 0,0 UV-I 44 W/m 0,0 km/h (0 Bft)
23.05.2013 18:42 7,8 C 6,2 C 83 % 1007,9 hPa 0,2 l/m 0 min 2 min 0,0 UV-I 42 W/m 15,4 km/h (3 Bft)
23.05.2013 18:44 7,8 C 5,7 C 82 % 1007,9 hPa 0,0 l/m 0 min 2 min 0,0 UV-I 44 W/m 30,9 km/h (5 Bft)
23.05.2013 18:46 7,7 C 5,1 C 82 % 1007,9 hPa 0,0 l/m 0 min 2 min 0,0 UV-I 44 W/m 23,2 km/h (4 Bft)
23.05.2013 18:48 7,6 C 5,1 C 83 % 1008,0 hPa 0,0 l/m 0 min 2 min 0,0 UV-I 35 W/m 23,2 km/h (4 Bft)
23.05.2013 18:50 7,4 C 5,1 C 83 % 1008,0 hPa 0,0 l/m 0 min 2 min 0,0 UV-I 30 W/m 28,3 km/h (4 Bft)
23.05.2013 18:52 7,3 C 5,1 C 84 % 1008,0 hPa 0,0 l/m 0 min 2 min 0,0 UV-I 28 W/m 28,3 km/h (4 Bft)
23.05.2013 18:54 7,1 C 5,1 C 85 % 1008,1 hPa 0,0 l/m 0 min 2 min 0,0 UV-I 30 W/m 20,6 km/h (4 Bft)
23.05.2013 18:56 6,9 C 4,6 C 85 % 1008,1 hPa 0,2 l/m 0 min 2 min 0,0 UV-I 39 W/m 12,9 km/h (3 Bft)
23.05.2013 18:58 6,6 C 4,6 C 86 % 1008,0 hPa 0,0 l/m 0 min 2 min 0,0 UV-I 54 W/m 15,4 km/h (3 Bft)
23.05.2013 19:00 6,4 C 4,6 C 86 % 1008,0 hPa 0,0 l/m 0 min 2 min 0,0 UV-I 58 W/m 12,9 km/h (3 Bft)
23.05.2013 19:02 6,2 C 4,6 C 87 % 1007,9 hPa 0,2 l/m 0 min 2 min 0,0 UV-I 70 W/m 7,7 km/h (2 Bft)
23.05.2013 19:04 6,1 C 4,6 C 88 % 1007,9 hPa 0,0 l/m 0 min 2 min 0,0 UV-I 84 W/m 5,1 km/h (1 Bft)
23.05.2013 19:06 5,9 C 5,1 C 89 % 1008,0 hPa 0,0 l/m 0 min 2 min 0,0 UV-I 100 W/m 7,7 km/h (2 Bft)
23.05.2013 19:08 5,9 C 5,1 C 90 % 1008,0 hPa 0,0 l/m 0 min 0 min 0,0 UV-I 128 W/m 2,6 km/h (1 Bft)
23.05.2013 19:10 5,9 C 5,1 C 90 % 1008,0 hPa 0,0 l/m 0 min 0 min 0,0 UV-I 135 W/m 7,7 km/h (2 Bft)
23.05.2013 19:12 6,0 C 5,7 C 91 % 1008,1 hPa 0,0 l/m 0 min 0 min 0,0 UV-I 134 W/m 2,6 km/h (1 Bft)
23.05.2013 19:14 6,1 C 5,7 C 91 % 1008,1 hPa 0,0 l/m 0 min 0 min 0,0 UV-I 132 W/m 7,7 km/h (2 Bft)
23.05.2013 19:16 6,2 C 5,7 C 92 % 1008,1 hPa 0,0 l/m 0 min 0 min 0,0 UV-I 127 W/m 0,0 km/h (0 Bft)
23.05.2013 19:18 6,2 C 5,7 C 92 % 1008,2 hPa 0,0 l/m 0 min 0 min 0,0 UV-I 121 W/m 0,0 km/h (0 Bft)
23.05.2013 19:20 6,4 C 6,2 C 92 % 1008,2 hPa 0,0 l/m 0 min 0 min 0,0 UV-I 120 W/m 0,0 km/h (0 Bft)
23.05.2013 19:22 6,5 C 6,2 C 93 % 1008,2 hPa 0,0 l/m 0 min 0 min 0,0 UV-I 121 W/m 0,0 km/h (0 Bft)
23.05.2013 19:24 6,6 C 6,2 C 93 % 1008,1 hPa 0,0 l/m 0 min 0 min 0,0 UV-I 127 W/m 0,0 km/h (0 Bft)
23.05.2013 19:26 6,8 C 6,2 C 93 % 1008,2 hPa 0,0 l/m 0 min 0 min 0,0 UV-I 130 W/m 0,0 km/h (0 Bft)
23.05.2013 19:28 6,9 C 6,8 C 94 % 1008,2 hPa 0,0 l/m 0 min 0 min 0,0 UV-I 123 W/m 0,0 km/h (0 Bft)
23.05.2013 19:30 7,1 C 6,8 C 94 % 1008,3 hPa 0,0 l/m 0 min 0 min 0,0 UV-I 104 W/m 0,0 km/h (0 Bft)
23.05.2013 19:32 7,2 C 6,2 C 94 % 1008,2 hPa 0,0 l/m 0 min 0 min 0,0 UV-I 76 W/m 0,0 km/h (0 Bft)
23.05.2013 19:34 7,2 C 6,2 C 94 % 1008,3 hPa 0,0 l/m 0 min 0 min 0,0 UV-I 65 W/m 0,0 km/h (0 Bft)
23.05.2013 19:36 7,2 C 6,2 C 93 % 1008,3 hPa 0,0 l/m 0 min 0 min 0,0 UV-I 54 W/m 10,3 km/h (2 Bft)
23.05.2013 19:38 7,1 C 5,7 C 93 % 1008,2 hPa 0,0 l/m 0 min 0 min 0,0 UV-I 47 W/m 5,1 km/h (1 Bft)
23.05.2013 19:40 7,1 C 5,7 C 92 % 1008,2 hPa 0,0 l/m 0 min 0 min 0,0 UV-I 42 W/m 0,0 km/h (0 Bft)
23.05.2013 19:42 7,0 C 5,7 C 92 % 1008,2 hPa 0,0 l/m 0 min 0 min 0,0 UV-I 37 W/m 12,9 km/h (3 Bft)
23.05.2013 19:44 7,0 C 5,7 C 91 % 1008,2 hPa 0,0 l/m 0 min 0 min 0,0 UV-I 32 W/m 10,3 km/h (2 Bft)
23.05.2013 19:46 6,9 C 5,1 C 91 % 1008,3 hPa 0,0 l/m 0 min 0 min 0,0 UV-I 28 W/m 0,0 km/h (0 Bft)
23.05.2013 19:48 6,9 C 5,1 C 90 % 1008,3 hPa 0,0 l/m 0 min 0 min 0,0 UV-I 25 W/m 10,3 km/h (2 Bft)
23.05.2013 19:50 6,9 C 5,1 C 90 % 1008,3 hPa 0,0 l/m 0 min 0 min 0,0 UV-I 21 W/m 10,3 km/h (2 Bft)
23.05.2013 19:52 6,9 C 5,1 C 90 % 1008,3 hPa 0,0 l/m 0 min 0 min 0,0 UV-I 21 W/m 0,0 km/h (0 Bft)
23.05.2013 19:54 6,9 C 5,1 C 90 % 1008,3 hPa 0,0 l/m 0 min 0 min 0,0 UV-I 21 W/m 0,0 km/h (0 Bft)
23.05.2013 19:56 6,9 C 5,1 C 90 % 1008,4 hPa 0,0 l/m 0 min 0 min 0,0 UV-I 19 W/m 0,0 km/h (0 Bft)
23.05.2013 19:58 6,9 C 5,1 C 90 % 1008,4 hPa 0,0 l/m 0 min 0 min 0,0 UV-I 19 W/m 5,1 km/h (1 Bft)
23.05.2013 20:00 6,8 C 5,1 C 90 % 1008,4 hPa 0,0 l/m 0 min 0 min 0,0 UV-I 21 W/m 2,6 km/h (1 Bft)
23.05.2013 20:02 6,8 C 5,1 C 90 % 1008,4 hPa 0,0 l/m 0 min 0 min 0,0 UV-I 23 W/m 2,6 km/h (1 Bft)
23.05.2013 20:04 6,8 C 5,1 C 90 % 1008,5 hPa 0,0 l/m 0 min 0 min 0,0 UV-I 25 W/m 0,0 km/h (0 Bft)
23.05.2013 20:06 6,8 C 5,1 C 90 % 1008,5 hPa 0,0 l/m 0 min 0 min 0,0 UV-I 28 W/m 0,0 km/h (0 Bft)
23.05.2013 20:08 6,8 C 5,1 C 90 % 1008,5 hPa 0,0 l/m 0 min 0 min 0,0 UV-I 35 W/m 0,0 km/h (0 Bft)
23.05.2013 20:10 6,8 C 5,1 C 90 % 1008,5 hPa 0,0 l/m 0 min 0 min 0,0 UV-I 35 W/m 0,0 km/h (0 Bft)
23.05.2013 20:12 6,7 C 5,1 C 90 % 1008,6 hPa 0,0 l/m 0 min 0 min 0,0 UV-I 35 W/m 0,0 km/h (0 Bft)
23.05.2013 20:14 6,7 C 5,1 C 89 % 1008,7 hPa 0,0 l/m 0 min 0 min 0,0 UV-I 33 W/m 0,0 km/h (0 Bft)
23.05.2013 20:16 6,7 C 5,1 C 90 % 1008,6 hPa 0,0 l/m 0 min 0 min 0,0 UV-I 35 W/m 0,0 km/h (0 Bft)
23.05.2013 20:18 6,7 C 5,1 C 90 % 1008,7 hPa 0,0 l/m 0 min 2 min 0,0 UV-I 42 W/m 0,0 km/h (0 Bft)
23.05.2013 20:20 6,7 C 5,1 C 90 % 1008,7 hPa 0,0 l/m 0 min 2 min 0,0 UV-I 46 W/m 0,0 km/h (0 Bft)
23.05.2013 20:22 6,7 C 5,1 C 90 % 1008,7 hPa 0,0 l/m 0 min 2 min 0,0 UV-I 47 W/m 0,0 km/h (0 Bft)
23.05.2013 20:24 6,7 C 5,7 C 90 % 1008,8 hPa 0,0 l/m 0 min 0 min 0,0 UV-I 44 W/m 7,7 km/h (2 Bft)
23.05.2013 20:26 6,7 C 5,1 C 90 % 1008,8 hPa 0,0 l/m 0 min 0 min 0,0 UV-I 40 W/m 10,3 km/h (2 Bft)
23.05.2013 20:28 6,7 C 5,1 C 90 % 1008,8 hPa 0,0 l/m 0 min 0 min 0,0 UV-I 40 W/m 10,3 km/h (2 Bft)
23.05.2013 20:30 6,7 C 5,1 C 90 % 1008,8 hPa 0,0 l/m 0 min 0 min 0,0 UV-I 40 W/m 0,0 km/h (0 Bft)
23.05.2013 20:32 6,6 C 5,1 C 89 % 1008,8 hPa 0,0 l/m 0 min 0 min 0,0 UV-I 40 W/m 2,6 km/h (1 Bft)
23.05.2013 20:34 6,6 C 5,1 C 89 % 1008,8 hPa 0,0 l/m 0 min 2 min 0,0 UV-I 39 W/m 2,6 km/h (1 Bft)
23.05.2013 20:36 6,6 C 5,1 C 89 % 1008,8 hPa 0,0 l/m 0 min 0 min 0,0 UV-I 32 W/m 0,0 km/h (0 Bft)
23.05.2013 20:38 6,7 C 5,1 C 90 % 1008,8 hPa 0,0 l/m 0 min 0 min 0,0 UV-I 28 W/m 0,0 km/h (0 Bft)
23.05.2013 20:40 6,7 C 5,1 C 90 % 1008,8 hPa 0,0 l/m 0 min 0 min 0,0 UV-I 25 W/m 0,0 km/h (0 Bft)
23.05.2013 20:42 6,7 C 5,1 C 90 % 1008,8 hPa 0,0 l/m 0 min 0 min 0,0 UV-I 21 W/m 0,0 km/h (0 Bft)
23.05.2013 20:44 6,6 C 5,1 C 90 % 1008,9 hPa 0,0 l/m 0 min 0 min 0,0 UV-I 18 W/m 5,1 km/h (1 Bft)
23.05.2013 20:46 6,6 C 5,1 C 90 % 1008,9 hPa 0,0 l/m 0 min 0 min 0,0 UV-I 16 W/m 7,7 km/h (2 Bft)
23.05.2013 20:48 6,6 C 5,1 C 90 % 1008,9 hPa 0,0 l/m 0 min 0 min 0,0 UV-I 12 W/m 0,0 km/h (0 Bft)
23.05.2013 20:50 6,6 C 5,1 C 90 % 1009,0 hPa 0,0 l/m 0 min 0 min 0,0 UV-I 12 W/m 0,0 km/h (0 Bft)
23.05.2013 20:52 6,6 C 5,1 C 90 % 1009,1 hPa 0,0 l/m 0 min 0 min 0,0 UV-I 12 W/m 0,0 km/h (0 Bft)
23.05.2013 20:54 6,6 C 5,1 C 89 % 1009,0 hPa 0,0 l/m 0 min 0 min 0,0 UV-I 11 W/m 0,0 km/h (0 Bft)
23.05.2013 20:56 6,6 C 5,1 C 89 % 1009,1 hPa 0,0 l/m 0 min 0 min 0,0 UV-I 11 W/m 7,7 km/h (2 Bft)
23.05.2013 20:58 6,6 C 5,1 C 89 % 1009,1 hPa 0,0 l/m 0 min 0 min 0,0 UV-I 9 W/m 0,0 km/h (0 Bft)
23.05.2013 21:00 6,6 C 5,1 C 89 % 1009,1 hPa 0,0 l/m 0 min 0 min 0,0 UV-I 9 W/m 0,0 km/h (0 Bft)
23.05.2013 21:02 6,5 C 5,1 C 89 % 1009,2 hPa 0,0 l/m 0 min 0 min 0,0 UV-I 9 W/m 0,0 km/h (0 Bft)
23.05.2013 21:04 6,5 C 5,1 C 89 % 1009,2 hPa 0,0 l/m 0 min 0 min 0,0 UV-I 7 W/m 0,0 km/h (0 Bft)
23.05.2013 21:06 6,5 C 5,1 C 89 % 1009,2 hPa 0,0 l/m 0 min 0 min 0,0 UV-I 7 W/m 0,0 km/h (0 Bft)
23.05.2013 21:08 6,5 C 5,1 C 93 % 1009,3 hPa 0,0 l/m 0 min 0 min 0,0 UV-I 7 W/m 0,0 km/h (0 Bft)
23.05.2013 21:10 6,5 C 5,1 C 89 % 1009,3 hPa 0,0 l/m 0 min 0 min 0,0 UV-I 5 W/m 2,6 km/h (1 Bft)
23.05.2013 21:12 6,5 C 5,1 C 89 % 1009,4 hPa 0,0 l/m 0 min 0 min 0,0 UV-I 5 W/m 5,1 km/h (1 Bft)
23.05.2013 21:14 6,4 C 5,1 C 89 % 1009,4 hPa 0,0 l/m 0 min 0 min 0,0 UV-I 5 W/m 7,7 km/h (2 Bft)
23.05.2013 21:16 6,4 C 5,1 C 89 % 1009,3 hPa 0,0 l/m 0 min 0 min 0,0 UV-I 5 W/m 5,1 km/h (1 Bft)
23.05.2013 21:18 6,4 C 4,6 C 89 % 1009,4 hPa 0,0 l/m 0 min 0 min 0,0 UV-I 5 W/m 0,0 km/h (0 Bft)
23.05.2013 21:20 6,4 C 4,6 C 89 % 1009,3 hPa 0,0 l/m 0 min 2 min 0,0 UV-I 5 W/m 5,1 km/h (1 Bft)
23.05.2013 21:22 6,3 C 4,6 C 88 % 1009,3 hPa 0,0 l/m 0 min 0 min 0,0 UV-I 5 W/m 10,3 km/h (2 Bft)
23.05.2013 21:24 6,3 C 5,1 C 89 % 1009,4 hPa 0,0 l/m 0 min 0 min 0,0 UV-I 5 W/m 0,0 km/h (0 Bft)
23.05.2013 21:26 6,3 C 5,1 C 88 % 1009,5 hPa 0,0 l/m 0 min 0 min 0,0 UV-I 0 W/m 7,7 km/h (2 Bft)
23.05.2013 21:28 6,3 C 4,6 C 88 % 1009,5 hPa 0,0 l/m 0 min 0 min 0,0 UV-I 0 W/m 0,0 km/h (0 Bft)
23.05.2013 21:30 6,3 C 5,1 C 88 % 1009,5 hPa 0,0 l/m 0 min 0 min 0,0 UV-I 0 W/m 0,0 km/h (0 Bft)
23.05.2013 21:32 6,3 C 5,1 C 88 % 1009,6 hPa 0,0 l/m 0 min 0 min 0,0 UV-I 0 W/m 0,0 km/h (0 Bft)
23.05.2013 21:34 6,3 C 5,1 C 88 % 1009,6 hPa 0,0 l/m 0 min 0 min 0,0 UV-I 0 W/m 0,0 km/h (0 Bft)
23.05.2013 21:36 6,3 C 5,1 C 88 % 1009,7 hPa 0,0 l/m 0 min 0 min 0,0 UV-I 0 W/m 2,6 km/h (1 Bft)
23.05.2013 21:38 6,3 C 5,1 C 88 % 1009,7 hPa 0,0 l/m 0 min 0 min 0,0 UV-I 0 W/m 0,0 km/h (0 Bft)
23.05.2013 21:40 6,3 C 5,1 C 88 % 1009,8 hPa 0,0 l/m 0 min 0 min 0,0 UV-I 0 W/m 7,7 km/h (2 Bft)
23.05.2013 21:42 6,3 C 5,1 C 88 % 1009,8 hPa 0,0 l/m 0 min 2 min 0,0 UV-I 0 W/m 10,3 km/h (2 Bft)
23.05.2013 21:44 6,3 C 5,1 C 88 % 1009,8 hPa 0,0 l/m 0 min 2 min 0,0 UV-I 0 W/m 15,4 km/h (3 Bft)
23.05.2013 21:46 6,2 C 4,6 C 88 % 1009,8 hPa 0,0 l/m 0 min 2 min 0,0 UV-I 0 W/m 12,9 km/h (3 Bft)
23.05.2013 21:48 6,2 C 4,6 C 88 % 1009,8 hPa 0,0 l/m 0 min 2 min 0,0 UV-I 0 W/m 12,9 km/h (3 Bft)
23.05.2013 21:50 6,2 C 4,6 C 88 % 1009,9 hPa 0,0 l/m 0 min 0 min 0,0 UV-I 0 W/m 10,3 km/h (2 Bft)
23.05.2013 21:52 6,2 C 4,6 C 87 % 1009,8 hPa 0,0 l/m 0 min 0 min 0,0 UV-I 0 W/m 7,7 km/h (2 Bft)
23.05.2013 21:54 6,2 C 4,6 C 87 % 1009,8 hPa 0,0 l/m 0 min 0 min 0,0 UV-I 0 W/m 5,1 km/h (1 Bft)
23.05.2013 21:56 6,1 C 4,6 C 87 % 1009,8 hPa 0,0 l/m 0 min 0 min 0,0 UV-I 0 W/m 7,7 km/h (2 Bft)
23.05.2013 21:58 6,1 C 4,0 C 87 % 1009,8 hPa 0,0 l/m 0 min 0 min 0,0 UV-I 0 W/m 0,0 km/h (0 Bft)
23.05.2013 22:00 6,1 C 4,0 C 87 % 1009,8 hPa 0,0 l/m 0 min 0 min 0,0 UV-I 0 W/m 0,0 km/h (0 Bft)
23.05.2013 22:02 6,0 C 4,0 C 87 % 1009,8 hPa 0,0 l/m 0 min 0 min 0,0 UV-I 0 W/m 0,0 km/h (0 Bft)
23.05.2013 22:04 6,0 C 4,0 C 87 % 1009,7 hPa 0,0 l/m 0 min 0 min 0,0 UV-I 0 W/m 0,0 km/h (0 Bft)
23.05.2013 22:06 5,9 C 4,0 C 87 % 1009,7 hPa 0,0 l/m 0 min 0 min 0,0 UV-I 0 W/m 0,0 km/h (0 Bft)
23.05.2013 22:08 5,9 C 4,0 C 87 % 1009,7 hPa 0,0 l/m 0 min 0 min 0,0 UV-I 0 W/m 0,0 km/h (0 Bft)
23.05.2013 22:10 5,9 C 4,0 C 87 % 1009,8 hPa 0,0 l/m 0 min 0 min 0,0 UV-I 0 W/m 0,0 km/h (0 Bft)
23.05.2013 22:12 5,9 C 4,0 C 87 % 1009,8 hPa 0,0 l/m 0 min 0 min 0,0 UV-I 0 W/m 0,0 km/h (0 Bft)
23.05.2013 22:14 5,8 C 4,0 C 87 % 1009,8 hPa 0,0 l/m 0 min 0 min 0,0 UV-I 0 W/m 0,0 km/h (0 Bft)
23.05.2013 22:16 5,8 C 4,0 C 87 % 1009,8 hPa 0,0 l/m 0 min 0 min 0,0 UV-I 0 W/m 0,0 km/h (0 Bft)
23.05.2013 22:18 5,8 C 4,0 C 87 % 1009,8 hPa 0,0 l/m 0 min 0 min 0,0 UV-I 0 W/m 0,0 km/h (0 Bft)
23.05.2013 22:20 5,8 C 4,0 C 88 % 1009,7 hPa 0,0 l/m 0 min 0 min 0,0 UV-I 0 W/m 0,0 km/h (0 Bft)
23.05.2013 22:22 5,8 C 4,0 C 88 % 1009,7 hPa 0,0 l/m 0 min 0 min 0,0 UV-I 0 W/m 0,0 km/h (0 Bft)
23.05.2013 22:24 5,8 C 4,0 C 88 % 1009,7 hPa 0,0 l/m 0 min 0 min 0,0 UV-I 0 W/m 0,0 km/h (0 Bft)
23.05.2013 22:26 5,7 C 4,0 C 88 % 1009,8 hPa 0,0 l/m 0 min 0 min 0,0 UV-I 0 W/m 0,0 km/h (0 Bft)
23.05.2013 22:28 5,7 C 4,0 C 88 % 1009,7 hPa 0,0 l/m 0 min 0 min 0,0 UV-I 0 W/m 0,0 km/h (0 Bft)
23.05.2013 22:30 5,7 C 3,4 C 88 % 1009,8 hPa 0,0 l/m 0 min 0 min 0,0 UV-I 0 W/m 0,0 km/h (0 Bft)
23.05.2013 22:32 5,7 C 3,4 C 88 % 1009,8 hPa 0,0 l/m 0 min 0 min 0,0 UV-I 0 W/m 0,0 km/h (0 Bft)
23.05.2013 22:34 5,6 C 3,4 C 88 % 1009,7 hPa 0,0 l/m 0 min 0 min 0,0 UV-I 0 W/m 0,0 km/h (0 Bft)
23.05.2013 22:36 5,6 C 3,4 C 88 % 1009,7 hPa 0,0 l/m 0 min 0 min 0,0 UV-I 0 W/m 0,0 km/h (0 Bft)
23.05.2013 22:38 5,6 C 3,4 C 88 % 1009,8 hPa 0,0 l/m 0 min 0 min 0,0 UV-I 0 W/m 0,0 km/h (0 Bft)
23.05.2013 22:40 5,5 C 3,4 C 88 % 1009,8 hPa 0,0 l/m 0 min 0 min 0,0 UV-I 0 W/m 0,0 km/h (0 Bft)
23.05.2013 22:42 5,4 C 3,4 C 88 % 1009,7 hPa 0,0 l/m 0 min 0 min 0,0 UV-I 0 W/m 0,0 km/h (0 Bft)
23.05.2013 22:44 5,4 C 2,9 C 88 % 1009,7 hPa 0,0 l/m 0 min 0 min 0,0 UV-I 0 W/m 0,0 km/h (0 Bft)
23.05.2013 22:46 5,4 C 2,9 C 88 % 1009,7 hPa 0,0 l/m 0 min 0 min 0,0 UV-I 0 W/m 0,0 km/h (0 Bft)
23.05.2013 22:48 5,4 C 2,9 C 88 % 1009,7 hPa 0,0 l/m 0 min 0 min 0,0 UV-I 0 W/m 0,0 km/h (0 Bft)
23.05.2013 22:50 5,3 C 2,9 C 88 % 1009,7 hPa 0,0 l/m 0 min 0 min 0,0 UV-I 0 W/m 0,0 km/h (0 Bft)
23.05.2013 22:52 5,3 C 2,9 C 88 % 1009,7 hPa 0,0 l/m 0 min 0 min 0,0 UV-I 0 W/m 0,0 km/h (0 Bft)
23.05.2013 22:54 5,2 C 2,9 C 88 % 1009,8 hPa 0,0 l/m 0 min 0 min 0,0 UV-I 0 W/m 0,0 km/h (0 Bft)
23.05.2013 22:56 5,2 C 2,9 C 88 % 1009,8 hPa 0,0 l/m 0 min 0 min 0,0 UV-I 0 W/m 0,0 km/h (0 Bft)
23.05.2013 22:58 5,2 C 2,9 C 88 % 1009,8 hPa 0,0 l/m 0 min 0 min 0,0 UV-I 0 W/m 0,0 km/h (0 Bft)
23.05.2013 23:00 5,1 C 2,9 C 88 % 1009,8 hPa 0,0 l/m 0 min 0 min 0,0 UV-I 0 W/m 0,0 km/h (0 Bft)
23.05.2013 23:02 5,1 C 2,9 C 88 % 1009,8 hPa 0,0 l/m 0 min 0 min 0,0 UV-I 0 W/m 0,0 km/h (0 Bft)
23.05.2013 23:04 5,1 C 2,3 C 88 % 1009,8 hPa 0,0 l/m 0 min 0 min 0,0 UV-I 0 W/m 0,0 km/h (0 Bft)
23.05.2013 23:06 5,0 C 2,3 C 88 % 1009,8 hPa 0,0 l/m 0 min 0 min 0,0 UV-I 0 W/m 0,0 km/h (0 Bft)
23.05.2013 23:08 4,9 C 2,3 C 88 % 1009,8 hPa 0,0 l/m 0 min 0 min 0,0 UV-I 0 W/m 0,0 km/h (0 Bft)
23.05.2013 23:10 4,9 C 2,3 C 89 % 1009,8 hPa 0,0 l/m 0 min 0 min 0,0 UV-I 0 W/m 0,0 km/h (0 Bft)
23.05.2013 23:12 4,8 C 2,9 C 89 % 1009,8 hPa 0,0 l/m 0 min 0 min 0,0 UV-I 0 W/m 0,0 km/h (0 Bft)
23.05.2013 23:14 4,8 C 2,9 C 89 % 1009,8 hPa 0,0 l/m 0 min 0 min 0,0 UV-I 0 W/m 0,0 km/h (0 Bft)
23.05.2013 23:16 4,8 C 2,3 C 89 % 1009,8 hPa 0,0 l/m 0 min 0 min 0,0 UV-I 0 W/m 0,0 km/h (0 Bft)
23.05.2013 23:18 4,7 C 2,3 C 89 % 1009,8 hPa 0,0 l/m 0 min 0 min 0,0 UV-I 0 W/m 0,0 km/h (0 Bft)
23.05.2013 23:20 4,7 C 2,3 C 89 % 1009,9 hPa 0,0 l/m 0 min 0 min 0,0 UV-I 0 W/m 0,0 km/h (0 Bft)
23.05.2013 23:22 4,7 C 2,3 C 89 % 1009,8 hPa 0,0 l/m 0 min 0 min 0,0 UV-I 0 W/m 0,0 km/h (0 Bft)
23.05.2013 23:24 4,6 C 2,3 C 89 % 1009,9 hPa 0,0 l/m 0 min 0 min 0,0 UV-I 0 W/m 0,0 km/h (0 Bft)
23.05.2013 23:26 4,6 C 2,9 C 89 % 1009,9 hPa 0,0 l/m 0 min 0 min 0,0 UV-I 0 W/m 0,0 km/h (0 Bft)
23.05.2013 23:28 4,5 C 2,3 C 89 % 1009,8 hPa 0,0 l/m 0 min 0 min 0,0 UV-I 0 W/m 0,0 km/h (0 Bft)
23.05.2013 23:30 4,5 C 2,3 C 89 % 1009,9 hPa 0,0 l/m 0 min 0 min 0,0 UV-I 0 W/m 0,0 km/h (0 Bft)
23.05.2013 23:32 4,4 C 2,3 C 89 % 1009,9 hPa 0,0 l/m 0 min 0 min 0,0 UV-I 0 W/m 0,0 km/h (0 Bft)
23.05.2013 23:34 4,4 C 2,3 C 90 % 1010,0 hPa 0,0 l/m 0 min 0 min 0,0 UV-I 0 W/m 0,0 km/h (0 Bft)
23.05.2013 23:36 4,4 C 2,3 C 90 % 1009,9 hPa 0,0 l/m 0 min 0 min 0,0 UV-I 0 W/m 0,0 km/h (0 Bft)
23.05.2013 23:38 4,3 C 2,3 C 90 % 1010,0 hPa 0,0 l/m 0 min 0 min 0,0 UV-I 0 W/m 0,0 km/h (0 Bft)
23.05.2013 23:40 4,3 C 2,3 C 90 % 1010,0 hPa 0,0 l/m 0 min 0 min 0,0 UV-I 0 W/m 0,0 km/h (0 Bft)
23.05.2013 23:42 4,3 C 2,3 C 90 % 1010,0 hPa 0,0 l/m 0 min 0 min 0,0 UV-I 0 W/m 0,0 km/h (0 Bft)
23.05.2013 23:44 4,3 C 2,3 C 90 % 1010,0 hPa 0,0 l/m 0 min 0 min 0,0 UV-I 0 W/m 0,0 km/h (0 Bft)
23.05.2013 23:46 4,2 C 2,3 C 90 % 1010,0 hPa 0,0 l/m 0 min 0 min 0,0 UV-I 0 W/m 0,0 km/h (0 Bft)
23.05.2013 23:48 4,2 C 2,3 C 90 % 1010,0 hPa 0,0 l/m 0 min 0 min 0,0 UV-I 0 W/m 0,0 km/h (0 Bft)
23.05.2013 23:50 4,2 C 2,3 C 90 % 1010,1 hPa 0,0 l/m 0 min 0 min 0,0 UV-I 0 W/m 0,0 km/h (0 Bft)
23.05.2013 23:52 4,2 C 2,3 C 90 % 1010,1 hPa 0,0 l/m 0 min 0 min 0,0 UV-I 0 W/m 0,0 km/h (0 Bft)
23.05.2013 23:54 4,1 C 2,3 C 90 % 1010,1 hPa 0,0 l/m 0 min 0 min 0,0 UV-I 0 W/m 0,0 km/h (0 Bft)
23.05.2013 23:56 4,1 C 2,3 C 90 % 1010,2 hPa 0,0 l/m 0 min 0 min 0,0 UV-I 0 W/m 0,0 km/h (0 Bft)
23.05.2013 23:58 4,1 C 2,3 C 90 % 1010,2 hPa 0,0 l/m 0 min 0 min 0,0 UV-I 0 W/m 0,0 km/h (0 Bft)
_ Min-Zeit 23:54 23:04 17:12 12:58 - - - - - 00:00
Minimum _ 4,1 C 2,3 C 77 % 1007,1 hPa - - - - - 0,0 km/h (0 Bft)
_ Max-Zeit 15:44 15:42 04:36 00:00 03:44 12:46 02:54 15:32 16:42 18:44
Maximum _ 9,9 C 11,2 C 96 % 1013,4 hPa 0,2 l/m 2 min 2 min 3,5 UV-I 926 W/m 30,9 km/h
N-NO (5 Bft)
Durchschnitt _ 6,6 C 5,8 C 90 % 1008,8 hPa #5,8 l/m #48 min. #8:39 h 1,2 UV-I 149 W/m 5,0 km/h (1 Bft)
© 2013 W. Hausmann